Observation data for Palo Duro Reservoir 1NW on 11/18/2019      Previous  Date  Next       Current Mesonet Observations  Soil Data  Daily Summary Page  Observations in Plain Language
KPD4 180600Z 22010KT 05/M02 A3001 RMK A01 T00531015  RH  061%=      5-min Rain = 0
KPD4 180601Z 22009KT 05/M01 A3001 RMK A01 T00541014  RH  061%=      5-min Rain = 0
KPD4 180602Z 22009KT 06/M01 A3001 RMK A01 T00551014  RH  061%=      5-min Rain = 0
KPD4 180603Z 22009KT 06/M01 A30 RMK A01 T00561014  RH  061%=      5-min Rain = 0
KPD4 180604Z 22009KT 06/M01 A30 RMK A01 T00571014  RH  060%=      5-min Rain = 0
KPD4 180605Z 22009KT 06/M01 A30 RMK A01 T00581013  RH  060%=      5-min Rain = 0
KPD4 180606Z 22009KT 06/M01 A30 RMK A01 T00581014  RH  060%=      5-min Rain = 0
KPD4 180607Z 22009KT 06/M01 A30 RMK A01 T00571014  RH  060%=      5-min Rain = 0
KPD4 180608Z 22009KT 06/M01 A30 RMK A01 T00561014  RH  060%=      5-min Rain = 0
KPD4 180609Z 22009KT 06/M01 A30 RMK A01 T00561014  RH  061%=      5-min Rain = 0
KPD4 180610Z 22009KT 06/M01 A30 RMK A01 T00561013  RH  061%=      5-min Rain = 0
KPD4 180611Z 22009KT 06/M01 A30 RMK A01 T00561013  RH  061%=      5-min Rain = 0
KPD4 180612Z 21008KT 06/M01 A30 RMK A01 T00561014  RH  061%=      5-min Rain = 0
KPD4 180613Z 21009KT 06/M01 A30 RMK A01 T00561014  RH  061%=      5-min Rain = 0
KPD4 180614Z 22009KT 05/M02 A30 RMK A01 T00541015  RH  061%=      5-min Rain = 0
KPD4 180615Z 22009KT 05/M02 A30 RMK A01 T00531015  RH  062%=      5-min Rain = 0
KPD4 180616Z 22009KT 05/M02 A2999 RMK A01 T00521015  RH  062%=      5-min Rain = 0
KPD4 180617Z 21009KT 05/M02 A2999 RMK A01 T00521015  RH  062%=      5-min Rain = 0
KPD4 180618Z 21009KT 05/M02 A2999 RMK A01 T00521015  RH  062%=      5-min Rain = 0
KPD4 180619Z 22009KT 05/M01 A2999 RMK A01 T00521014  RH  062%=      5-min Rain = 0
KPD4 180620Z 22010KT 05/M02 A2999 RMK A01 T00511015  RH  062%=      5-min Rain = 0
KPD4 180621Z 22010KT 05/M02 A2999 RMK A01 T00501015  RH  063%=      5-min Rain = 0
KPD4 180622Z 22010KT 05/M01 A2999 RMK A01 T00511014  RH  063%=      5-min Rain = 0
KPD4 180623Z 22009KT 05/M01 A2999 RMK A01 T00511014  RH  063%=      5-min Rain = 0
KPD4 180624Z 22009KT 05/M01 A2999 RMK A01 T00511014  RH  063%=      5-min Rain = 0
KPD4 180625Z 22009KT 05/M01 A2999 RMK A01 T00511014  RH  063%=      5-min Rain = 0
KPD4 180626Z 22008KT 05/M01 A2999 RMK A01 T00511014  RH  063%=      5-min Rain = 0
KPD4 180627Z 22008KT 05/M01 A2999 RMK A01 T00511014  RH  063%=      5-min Rain = 0
KPD4 180628Z 22008KT 05/M02 A2999 RMK A01 T00501015  RH  063%=      5-min Rain = 0
KPD4 180629Z 22009KT 05/M02 A2999 RMK A01 T00491015  RH  063%=      5-min Rain = 0
KPD4 180630Z 22010KT 05/M02 A2999 RMK A01 T00491015  RH  063%=      5-min Rain = 0
KPD4 180631Z 22010KT 05/M02 A2999 RMK A01 T00491015  RH  063%=      5-min Rain = 0
KPD4 180632Z 22010KT 05/M01 A2999 RMK A01 T00491014  RH  063%=      5-min Rain = 0
KPD4 180633Z 23009KT 05/M01 A2999 RMK A01 T00501014  RH  064%=      5-min Rain = 0
KPD4 180634Z 23009KT 05/M01 A2999 RMK A01 T00501013  RH  063%=      5-min Rain = 0
KPD4 180635Z 23009KT 05/M01 A2999 RMK A01 T00521012  RH  063%=      5-min Rain = 0
KPD4 180636Z 23009KT 05/M01 A2999 RMK A01 T00531012  RH  063%=      5-min Rain = 0
KPD4 180637Z 23009KT 05/M01 A2999 RMK A01 T00531012  RH  063%=      5-min Rain = 0
KPD4 180638Z 23009KT 05/M01 A2999 RMK A01 T00531012  RH  063%=      5-min Rain = 0
KPD4 180639Z 23009KT 05/M01 A2999 RMK A01 T00541012  RH  063%=      5-min Rain = 0
KPD4 180640Z 23009KT 05/M01 A2999 RMK A01 T00541012  RH  062%=      5-min Rain = 0
KPD4 180641Z 23010KT 05/M01 A2999 RMK A01 T00541012  RH  063%=      5-min Rain = 0
KPD4 180642Z 23009KT 05/M01 A2999 RMK A01 T00541012  RH  063%=      5-min Rain = 0
KPD4 180643Z 23010KT 05/M01 A2999 RMK A01 T00541012  RH  063%=      5-min Rain = 0
KPD4 180644Z 23009KT 06/M01 A2999 RMK A01 T00551011  RH  063%=      5-min Rain = 0
KPD4 180645Z 23010KT 06/M01 A2999 RMK A01 T00551011  RH  063%=      5-min Rain = 0
KPD4 180646Z 23009KT 06/M01 A2999 RMK A01 T00551011  RH  063%=      5-min Rain = 0
KPD4 180647Z 23010KT 06/M01 A2998 RMK A01 T00551010  RH  063%=      5-min Rain = 0
KPD4 180648Z 23009KT 06/M01 A2998 RMK A01 T00551010  RH  063%=      5-min Rain = 0
KPD4 180649Z 23009KT 06/M01 A2998 RMK A01 T00551010  RH  063%=      5-min Rain = 0
KPD4 180650Z 23009KT 06/M01 A2998 RMK A01 T00551009  RH  063%=      5-min Rain = 0
KPD4 180651Z 23009KT 06/M01 A2998 RMK A01 T00551009  RH  063%=      5-min Rain = 0
KPD4 180652Z 23009KT 06/M01 A2998 RMK A01 T00551009  RH  063%=      5-min Rain = 0
KPD4 180653Z 23008KT 06/M01 A2998 RMK A01 T00551009  RH  063%=      5-min Rain = 0
KPD4 180654Z 23009KT 06/M01 A2998 RMK A01 T00551009  RH  063%=      5-min Rain = 0
KPD4 180655Z 23009KT 06/M01 A2998 RMK A01 T00551009  RH  064%=      5-min Rain = 0
KPD4 180656Z 23009KT 05/M01 A2997 RMK A01 T00541009  RH  064%=      5-min Rain = 0
KPD4 180657Z 23009KT 05/M01 A2997 RMK A01 T00541009  RH  064%=      5-min Rain = 0
KPD4 180658Z 22009KT 05/M01 A2997 RMK A01 T00541009  RH  064%=      5-min Rain = 0
KPD4 180659Z 22009KT 05/M01 A2997 RMK A01 T00541009  RH  064%=      5-min Rain = 0
KPD4 180700Z 22009KT 05/M01 A2997 RMK A01 T00531009  RH  064%=      5-min Rain = 0
KPD4 180701Z 22009KT 05/M01 A2997 RMK A01 T00531009  RH  064%=      5-min Rain = 0
KPD4 180702Z 22009KT 05/M01 A2997 RMK A01 T00531009  RH  064%=      5-min Rain = 0
KPD4 180703Z 22009KT 05/M01 A2997 RMK A01 T00531009  RH  064%=      5-min Rain = 0
KPD4 180704Z 22009KT 05/M01 A2997 RMK A01 T00531009  RH  064%=      5-min Rain = 0
KPD4 180705Z 22009KT 05/M01 A2997 RMK A01 T00531009  RH  064%=      5-min Rain = 0
KPD4 180706Z 22008KT 05/M01 A2997 RMK A01 T00531009  RH  064%=      5-min Rain = 0
KPD4 180707Z 22009KT 05/M01 A2997 RMK A01 T00531009  RH  064%=      5-min Rain = 0
KPD4 180708Z 22008KT 05/M01 A2997 RMK A01 T00531009  RH  064%=      5-min Rain = 0
KPD4 180709Z 22008KT 05/M01 A2997 RMK A01 T00521010  RH  065%=      5-min Rain = 0
KPD4 180710Z 22008KT 05/M01 A2997 RMK A01 T00511010  RH  065%=      5-min Rain = 0
KPD4 180711Z 22008KT 05/M01 A2997 RMK A01 T00511009  RH  065%=      5-min Rain = 0
KPD4 180712Z 22008KT 05/M01 A2997 RMK A01 T00511009  RH  065%=      5-min Rain = 0
KPD4 180713Z 23008KT 05/M01 A2997 RMK A01 T00511010  RH  065%=      5-min Rain = 0
KPD4 180714Z 23009KT 05/M01 A2997 RMK A01 T00511009  RH  065%=      5-min Rain = 0
KPD4 180715Z 23009KT 05/M01 A2997 RMK A01 T00511009  RH  065%=      5-min Rain = 0
KPD4 180716Z 23009KT 05/M01 A2997 RMK A01 T00511009  RH  065%=      5-min Rain = 0
KPD4 180717Z 23009KT 05/M01 A2996 RMK A01 T00511009  RH  065%=      5-min Rain = 0
KPD4 180718Z 23009KT 05/M01 A2996 RMK A01 T00521008  RH  065%=      5-min Rain = 0
KPD4 180719Z 23009KT 05/M01 A2996 RMK A01 T00521009  RH  065%=      5-min Rain = 0
KPD4 180720Z 22010KT 05/M01 A2996 RMK A01 T00521008  RH  065%=      5-min Rain = 0
KPD4 180721Z 23009KT 05/M01 A2996 RMK A01 T00531008  RH  065%=      5-min Rain = 0
KPD4 180722Z 23010KT 05/M01 A2996 RMK A01 T00531008  RH  065%=      5-min Rain = 0
KPD4 180723Z 23009KT 05/M01 A2996 RMK A01 T00531008  RH  065%=      5-min Rain = 0
KPD4 180724Z 23009KT 05/M01 A2996 RMK A01 T00541007  RH  065%=      5-min Rain = 0
KPD4 180725Z 23009KT 05/M01 A2996 RMK A01 T00541007  RH  065%=      5-min Rain = 0
KPD4 180726Z 23009KT 05/M01 A2996 RMK A01 T00541008  RH  065%=      5-min Rain = 0
KPD4 180727Z 23009KT 05/M01 A2996 RMK A01 T00541007  RH  065%=      5-min Rain = 0
KPD4 180728Z 23009KT 05/M01 A2996 RMK A01 T00541007  RH  065%=      5-min Rain = 0
KPD4 180729Z 22009KT 05/M01 A2996 RMK A01 T00541007  RH  065%=      5-min Rain = 0
KPD4 180730Z 23009KT 05/M01 A2996 RMK A01 T00541007  RH  065%=      5-min Rain = 0
KPD4 180731Z 22009KT 05/M01 A2996 RMK A01 T00541006  RH  065%=      5-min Rain = 0
KPD4 180732Z 22009KT 05/M01 A2996 RMK A01 T00541007  RH  065%=      5-min Rain = 0
KPD4 180733Z 22009KT 05/M01 A2996 RMK A01 T00541007  RH  065%=      5-min Rain = 0
KPD4 180734Z 22009KT 05/M01 A2996 RMK A01 T00541006  RH  065%=      5-min Rain = 0
KPD4 180735Z 22010KT 05/M01 A2996 RMK A01 T00541006  RH  065%=      5-min Rain = 0
KPD4 180736Z 22010KT 05/M01 A2995 RMK A01 T00541006  RH  065%=      5-min Rain = 0
KPD4 180737Z 21009KT 06/M01 A2995 RMK A01 T00551006  RH  065%=      5-min Rain = 0
KPD4 180738Z 22009KT 05/M01 A2995 RMK A01 T00541007  RH  065%=      5-min Rain = 0
KPD4 180739Z 21008KT 05/M01 A2995 RMK A01 T00521009  RH  065%=      5-min Rain = 0
KPD4 180740Z 22008KT 05/M01 A2995 RMK A01 T00501009  RH  065%=      5-min Rain = 0
KPD4 180741Z 21009KT 05/M01 A2995 RMK A01 T00481011  RH  066%=      5-min Rain = 0
KPD4 180742Z 22009KT 05/M01 A2995 RMK A01 T00461011  RH  066%=      5-min Rain = 0
KPD4 180743Z 22009KT 04/M01 A2995 RMK A01 T00441011  RH  067%=      5-min Rain = 0
KPD4 180744Z 22009KT 04/M01 A2995 RMK A01 T00431011  RH  067%=      5-min Rain = 0
KPD4 180745Z 22009KT 04/M01 A2995 RMK A01 T00431011  RH  068%=      5-min Rain = 0
KPD4 180746Z 22009KT 04/M01 A2995 RMK A01 T00421012  RH  068%=      5-min Rain = 0
KPD4 180747Z 22009KT 04/M01 A2995 RMK A01 T00411012  RH  068%=      5-min Rain = 0
KPD4 180748Z 22009KT 04/M01 A2995 RMK A01 T00411011  RH  069%=      5-min Rain = 0
KPD4 180749Z 22009KT 04/M01 A2995 RMK A01 T00411010  RH  069%=      5-min Rain = 0
KPD4 180750Z 22009KT 04/M01 A2995 RMK A01 T00421010  RH  069%=      5-min Rain = 0
KPD4 180751Z 23009KT 04/M01 A2995 RMK A01 T00431010  RH  069%=      5-min Rain = 0
KPD4 180752Z 23010KT 04/M01 A2995 RMK A01 T00431009  RH  069%=      5-min Rain = 0
KPD4 180753Z 23010KT 04/M01 A2995 RMK A01 T00441008  RH  069%=      5-min Rain = 0
KPD4 180754Z 23009KT 05/M01 A2995 RMK A01 T00461007  RH  068%=      5-min Rain = 0
KPD4 180755Z 23009KT 05/M01 A2995 RMK A01 T00471007  RH  068%=      5-min Rain = 0
KPD4 180756Z 23009KT 05/M01 A2995 RMK A01 T00471008  RH  068%=      5-min Rain = 0
KPD4 180757Z 23009KT 05/M01 A2995 RMK A01 T00471007  RH  068%=      5-min Rain = 0
KPD4 180758Z 23010KT 05/M01 A2995 RMK A01 T00481007  RH  068%=      5-min Rain = 0
KPD4 180759Z 23010KT 05/M01 A2995 RMK A01 T00481007  RH  068%=      5-min Rain = 0
KPD4 180800Z 23010KT 05/M01 A2995 RMK A01 T00481007  RH  067%=      5-min Rain = 0
KPD4 180801Z 23010KT 05/M01 A2995 RMK A01 T00491007  RH  067%=      5-min Rain = 0
KPD4 180802Z 23010KT 05/M01 A2995 RMK A01 T00491007  RH  067%=      5-min Rain = 0
KPD4 180803Z 23010KT 05/M01 A2995 RMK A01 T00491006  RH  067%=      5-min Rain = 0
KPD4 180804Z 23010KT 05/M01 A2995 RMK A01 T00501006  RH  067%=      5-min Rain = 0
KPD4 180805Z 22010KT 05/M01 A2995 RMK A01 T00501007  RH  067%=      5-min Rain = 0
KPD4 180806Z 22010KT 05/M01 A2995 RMK A01 T00501006  RH  067%=      5-min Rain = 0
KPD4 180807Z 22009KT 05/M01 A2995 RMK A01 T00501006  RH  067%=      5-min Rain = 0
KPD4 180808Z 22010KT 05/M01 A2995 RMK A01 T00511006  RH  067%=      5-min Rain = 0
KPD4 180809Z 22010KT 05/M01 A2995 RMK A01 T00501006  RH  067%=      5-min Rain = 0
KPD4 180810Z 22009KT 05/M01 A2994 RMK A01 T00511006  RH  067%=      5-min Rain = 0
KPD4 180811Z 22010KT 05/M01 A2994 RMK A01 T00511005  RH  067%=      5-min Rain = 0
KPD4 180812Z 22010KT 05/M01 A2994 RMK A01 T00511005  RH  067%=      5-min Rain = 0
KPD4 180813Z 22010KT 05/M01 A2994 RMK A01 T00511005  RH  067%=      5-min Rain = 0
KPD4 180814Z 22010KT 05/M01 A2994 RMK A01 T00511005  RH  067%=      5-min Rain = 0
KPD4 180815Z 22009KT 05/M01 A2994 RMK A01 T00511005  RH  067%=      5-min Rain = 0
KPD4 180816Z 22010KT 05/M01 A2995 RMK A01 T00521005  RH  067%=      5-min Rain = 0
KPD4 180817Z 22010KT 05/M01 A2995 RMK A01 T00521005  RH  067%=      5-min Rain = 0
KPD4 180818Z 23009KT 05/M00 A2995 RMK A01 T00521004  RH  067%=      5-min Rain = 0
KPD4 180819Z 23009KT 05/M00 A2995 RMK A01 T00531004  RH  067%=      5-min Rain = 0
KPD4 180820Z 23010KT 05/M00 A2995 RMK A01 T00531004  RH  067%=      5-min Rain = 0
KPD4 180821Z 23009KT 05/M00 A2994 RMK A01 T00521004  RH  067%=      5-min Rain = 0
KPD4 180822Z 22009KT 05/M01 A2994 RMK A01 T00521005  RH  067%=      5-min Rain = 0
KPD4 180823Z 22010KT 05/M00 A2994 RMK A01 T00521004  RH  067%=      5-min Rain = 0
KPD4 180824Z 22010KT 05/M00 A2994 RMK A01 T00521004  RH  067%=      5-min Rain = 0
KPD4 180825Z 22011KT 05/M01 A2994 RMK A01 T00521005  RH  067%=      5-min Rain = 0
KPD4 180826Z 22011KT 05/M01 A2994 RMK A01 T00511005  RH  067%=      5-min Rain = 0
KPD4 180827Z 22012KT 05/M01 A2994 RMK A01 T00501005  RH  067%=      5-min Rain = 0
KPD4 180828Z 22012KT 05/M01 A2994 RMK A01 T00501005  RH  068%=      5-min Rain = 0
KPD4 180829Z 22012KT 05/M00 A2994 RMK A01 T00501004  RH  068%=      5-min Rain = 0
KPD4 180830Z 22012KT 05/M01 A2994 RMK A01 T00501005  RH  068%=      5-min Rain = 0
KPD4 180831Z 22011KT 05/M01 A2994 RMK A01 T00501005  RH  068%=      5-min Rain = 0
KPD4 180832Z 22010KT 05/M01 A2994 RMK A01 T00501005  RH  068%=      5-min Rain = 0
KPD4 180833Z 22011KT 05/M01 A2994 RMK A01 T00491005  RH  068%=      5-min Rain = 0
KPD4 180834Z 22010KT 05/M01 A2994 RMK A01 T00491005  RH  068%=      5-min Rain = 0
KPD4 180835Z 22009KT 05/M01 A2994 RMK A01 T00491005  RH  068%=      5-min Rain = 0
KPD4 180836Z 22010KT 05/M01 A2994 RMK A01 T00481005  RH  068%=      5-min Rain = 0
KPD4 180837Z 22009KT 05/M01 A2994 RMK A01 T00481005  RH  069%=      5-min Rain = 0
KPD4 180838Z 22010KT 05/M00 A2994 RMK A01 T00481004  RH  069%=      5-min Rain = 0
KPD4 180839Z 22009KT 05/M00 A2994 RMK A01 T00491004  RH  069%=      5-min Rain = 0
KPD4 180840Z 23010KT 05/M00 A2994 RMK A01 T00491004  RH  068%=      5-min Rain = 0
KPD4 180841Z 22009KT 05/M00 A2994 RMK A01 T00491004  RH  068%=      5-min Rain = 0
KPD4 180842Z 22008KT 05/M00 A2994 RMK A01 T00491004  RH  068%=      5-min Rain = 0
KPD4 180843Z 23008KT 05/M01 A2994 RMK A01 T00481005  RH  069%=      5-min Rain = 0
KPD4 180844Z 23008KT 05/M01 A2994 RMK A01 T00471006  RH  069%=      5-min Rain = 0
KPD4 180845Z 22008KT 05/M01 A2994 RMK A01 T00461005  RH  069%=      5-min Rain = 0
KPD4 180846Z 23008KT 05/M01 A2994 RMK A01 T00461005  RH  070%=      5-min Rain = 0
KPD4 180847Z 23008KT 05/M01 A2994 RMK A01 T00451006  RH  070%=      5-min Rain = 0
KPD4 180848Z 23008KT 04/M01 A2994 RMK A01 T00441006  RH  070%=      5-min Rain = 0
KPD4 180849Z 23008KT 04/M01 A2994 RMK A01 T00441005  RH  070%=      5-min Rain = 0
KPD4 180850Z 24008KT 04/M00 A2994 RMK A01 T00441004  RH  071%=      5-min Rain = 0
KPD4 180851Z 24008KT 04/M00 A2994 RMK A01 T00441004  RH  071%=      5-min Rain = 0
KPD4 180852Z 24008KT 04/M00 A2994 RMK A01 T00441004  RH  071%=      5-min Rain = 0
KPD4 180853Z 24008KT 04/M00 A2994 RMK A01 T00441003  RH  071%=      5-min Rain = 0
KPD4 180854Z 24008KT 04/M00 A2994 RMK A01 T00441003  RH  071%=      5-min Rain = 0
KPD4 180855Z 24008KT 04/M00 A2994 RMK A01 T00441003  RH  071%=      5-min Rain = 0
KPD4 180856Z 24008KT 04/M00 A2994 RMK A01 T00441003  RH  072%=      5-min Rain = 0
KPD4 180857Z 24008KT 04/M00 A2994 RMK A01 T00441003  RH  072%=      5-min Rain = 0
KPD4 180858Z 24009KT 04/M00 A2994 RMK A01 T00441002  RH  072%=      5-min Rain = 0
KPD4 180859Z 23009KT 04/M00 A2994 RMK A01 T00441002  RH  072%=      5-min Rain = 0
KPD4 180900Z 23009KT 04/M00 A2994 RMK A01 T00441001  RH  072%=      5-min Rain = 0
KPD4 180901Z 23010KT 05/M00 A2994 RMK A01 T00451001  RH  072%=      5-min Rain = 0
KPD4 180902Z 23010KT 05/00 A2994 RMK A01 T004600-0  RH  072%=      5-min Rain = 0
KPD4 180903Z 22010KT 05/M00 A2994 RMK A01 T00461001  RH  072%=      5-min Rain = 0
KPD4 180904Z 22009KT 05/M00 A2994 RMK A01 T00461001  RH  071%=      5-min Rain = 0
KPD4 180905Z 22009KT 05/M00 A2994 RMK A01 T00471001  RH  071%=      5-min Rain = 0
KPD4 180906Z 23009KT 05/M00 A2994 RMK A01 T00461001  RH  071%=      5-min Rain = 0
KPD4 180907Z 23009KT 05/M00 A2994 RMK A01 T00461001  RH  072%=      5-min Rain = 0
KPD4 180908Z 23009KT 05/M00 A2994 RMK A01 T00461001  RH  072%=      5-min Rain = 0
KPD4 180909Z 23009KT 05/M00 A2994 RMK A01 T00461001  RH  072%=      5-min Rain = 0
KPD4 180910Z 23010KT 05/M00 A2994 RMK A01 T00461001  RH  072%=      5-min Rain = 0
KPD4 180911Z 23010KT 05/M00 A2994 RMK A01 T00461001  RH  072%=      5-min Rain = 0
KPD4 180912Z 23010KT 05/M00 A2994 RMK A01 T00461001  RH  072%=      5-min Rain = 0
KPD4 180913Z 23010KT 05/M00 A2994 RMK A01 T00451001  RH  072%=      5-min Rain = 0
KPD4 180914Z 23010KT 05/M00 A2994 RMK A01 T00451001  RH  072%=      5-min Rain = 0
KPD4 180915Z 23010KT 05/M00 A2994 RMK A01 T00451001  RH  072%=      5-min Rain = 0
KPD4 180916Z 23010KT 05/M00 A2994 RMK A01 T00451001  RH  072%=      5-min Rain = 0
KPD4 180917Z 23010KT 05/M00 A2994 RMK A01 T00451001  RH  072%=      5-min Rain = 0
KPD4 180918Z 23010KT 05/M00 A2994 RMK A01 T00451001  RH  072%=      5-min Rain = 0
KPD4 180919Z 23010KT 05/M00 A2994 RMK A01 T00451001  RH  072%=      5-min Rain = 0
KPD4 180920Z 23010KT 04/M00 A2994 RMK A01 T00441001  RH  072%=      5-min Rain = 0
KPD4 180921Z 23010KT 05/M00 A2994 RMK A01 T00451001  RH  072%=      5-min Rain = 0
KPD4 180922Z 23010KT 05/M00 A2994 RMK A01 T00451001  RH  072%=      5-min Rain = 0
KPD4 180923Z 23010KT 04/M00 A2994 RMK A01 T00441001  RH  073%=      5-min Rain = 0
KPD4 180924Z 23009KT 04/M00 A2994 RMK A01 T00441001  RH  073%=      5-min Rain = 0
KPD4 180925Z 23010KT 04/M00 A2993 RMK A01 T00431001  RH  073%=      5-min Rain = 0
KPD4 180926Z 23010KT 04/M00 A2993 RMK A01 T00431001  RH  073%=      5-min Rain = 0
KPD4 180927Z 22010KT 04/M00 A2993 RMK A01 T00441001  RH  073%=      5-min Rain = 0
KPD4 180928Z 22010KT 04/M00 A2993 RMK A01 T00441001  RH  073%=      5-min Rain = 0
KPD4 180929Z 23010KT 04/M00 A2993 RMK A01 T00441001  RH  073%=      5-min Rain = 0
KPD4 180930Z 23010KT 04/00 A2993 RMK A01 T004400-0  RH  073%=      5-min Rain = 0
KPD4 180931Z 23010KT 04/M00 A2993 RMK A01 T00441001  RH  073%=      5-min Rain = 0
KPD4 180932Z 24010KT 04/M00 A2993 RMK A01 T00441001  RH  073%=      5-min Rain = 0
KPD4 180933Z 24009KT 04/M00 A2993 RMK A01 T00441001  RH  073%=      5-min Rain = 0
KPD4 180934Z 24010KT 04/M00 A2993 RMK A01 T00441001  RH  073%=      5-min Rain = 0
KPD4 180935Z 23010KT 04/M00 A2993 RMK A01 T00441001  RH  073%=      5-min Rain = 0
KPD4 180936Z 23010KT 04/M00 A2993 RMK A01 T00431001  RH  073%=      5-min Rain = 0
KPD4 180937Z 23010KT 04/M00 A2993 RMK A01 T00431001  RH  073%=      5-min Rain = 0
KPD4 180938Z 23010KT 04/M00 A2993 RMK A01 T00431001  RH  073%=      5-min Rain = 0
KPD4 180939Z 23010KT 04/M00 A2993 RMK A01 T00421001  RH  073%=      5-min Rain = 0
KPD4 180940Z 23010KT 04/M00 A2993 RMK A01 T00421001  RH  073%=      5-min Rain = 0
KPD4 180941Z 23009KT 04/M00 A2993 RMK A01 T00421001  RH  073%=      5-min Rain = 0
KPD4 180942Z 23010KT 04/M00 A2993 RMK A01 T00421001  RH  074%=      5-min Rain = 0
KPD4 180943Z 23011KT 04/M00 A2993 RMK A01 T00421001  RH  074%=      5-min Rain = 0
KPD4 180944Z 24010KT 04/M00 A2993 RMK A01 T00431001  RH  073%=      5-min Rain = 0
KPD4 180945Z 24009KT 04/M00 A2993 RMK A01 T00431001  RH  073%=      5-min Rain = 0
KPD4 180946Z 24009KT 04/M00 A2993 RMK A01 T00431001  RH  073%=      5-min Rain = 0
KPD4 180947Z 24010KT 04/00 A2993 RMK A01 T004400-0  RH  073%=      5-min Rain = 0
KPD4 180948Z 24010KT 04/00 A2993 RMK A01 T004400-0  RH  073%=      5-min Rain = 0
KPD4 180949Z 24010KT 05/00 A2993 RMK A01 T004500-0  RH  073%=      5-min Rain = 0
KPD4 180950Z 24009KT 05/00 A2993 RMK A01 T00450000  RH  072%=      5-min Rain = 0
KPD4 180951Z 24010KT 05/00 A2993 RMK A01 T00460000  RH  072%=      5-min Rain = 0
KPD4 180952Z 24010KT 05/00 A2993 RMK A01 T00460000  RH  072%=      5-min Rain = 0
KPD4 180953Z 24011KT 05/00 A2993 RMK A01 T00460000  RH  072%=      5-min Rain = 0
KPD4 180954Z 24011KT 05/00 A2993 RMK A01 T004600-0  RH  072%=      5-min Rain = 0
KPD4 180955Z 24011KT 05/00 A2993 RMK A01 T004600-0  RH  072%=      5-min Rain = 0
KPD4 180956Z 24010KT 05/00 A2993 RMK A01 T004600-0  RH  072%=      5-min Rain = 0
KPD4 180957Z 24010KT 05/00 A2993 RMK A01 T004600-0  RH  072%=      5-min Rain = 0
KPD4 180958Z 24010KT 05/M00 A2993 RMK A01 T00461001  RH  072%=      5-min Rain = 0
KPD4 180959Z 24010KT 05/M00 A2993 RMK A01 T00461001  RH  072%=      5-min Rain = 0
KPD4 181000Z 24009KT 05/M00 A2993 RMK A01 T00461001  RH  072%=      5-min Rain = 0
KPD4 181001Z 24009KT 05/M00 A2993 RMK A01 T00461001  RH  072%=      5-min Rain = 0
KPD4 181002Z 24009KT 05/M00 A2993 RMK A01 T00451001  RH  072%=      5-min Rain = 0
KPD4 181003Z 24009KT 05/M00 A2993 RMK A01 T00451001  RH  072%=      5-min Rain = 0
KPD4 181004Z 24008KT 04/M00 A2993 RMK A01 T00441002  RH  072%=      5-min Rain = 0
KPD4 181005Z 24009KT 04/M00 A2993 RMK A01 T00441002  RH  072%=      5-min Rain = 0
KPD4 181006Z 24009KT 04/M00 A2993 RMK A01 T00431002  RH  072%=      5-min Rain = 0
KPD4 181007Z 23009KT 04/M00 A2993 RMK A01 T00431002  RH  072%=      5-min Rain = 0
KPD4 181008Z 22009KT 04/M00 A2993 RMK A01 T00421003  RH  073%=      5-min Rain = 0
KPD4 181009Z 22010KT 04/M00 A2993 RMK A01 T00421002  RH  073%=      5-min Rain = 0
KPD4 181010Z 22009KT 04/M00 A2993 RMK A01 T00421002  RH  073%=      5-min Rain = 0
KPD4 181011Z 22009KT 04/M00 A2993 RMK A01 T00421002  RH  073%=      5-min Rain = 0
KPD4 181012Z 22009KT 04/M00 A2993 RMK A01 T00411002  RH  073%=      5-min Rain = 0
KPD4 181013Z 23008KT 04/M00 A2993 RMK A01 T00411002  RH  073%=      5-min Rain = 0
KPD4 181014Z 23008KT 04/M00 A2993 RMK A01 T00401002  RH  074%=      5-min Rain = 0
KPD4 181015Z 23009KT 04/M00 A2992 RMK A01 T00401003  RH  074%=      5-min Rain = 0
KPD4 181016Z 23008KT 04/M00 A2992 RMK A01 T00401002  RH  074%=      5-min Rain = 0
KPD4 181017Z 22007KT 04/M00 A2992 RMK A01 T00401002  RH  074%=      5-min Rain = 0
KPD4 181018Z 22008KT 04/M00 A2992 RMK A01 T00401002  RH  074%=      5-min Rain = 0
KPD4 181019Z 22008KT 04/M00 A2992 RMK A01 T00391003  RH  074%=      5-min Rain = 0
KPD4 181020Z 23008KT 04/M00 A2992 RMK A01 T00381004  RH  074%=      5-min Rain = 0
KPD4 181021Z 23008KT 04/M00 A2992 RMK A01 T00381003  RH  075%=      5-min Rain = 0
KPD4 181022Z 22009KT 04/M00 A2992 RMK A01 T00381002  RH  075%=      5-min Rain = 0
KPD4 181023Z 22008KT 04/M00 A2992 RMK A01 T00381002  RH  075%=      5-min Rain = 0
KPD4 181024Z 23008KT 04/M00 A2993 RMK A01 T00391002  RH  075%=      5-min Rain = 0
KPD4 181025Z 23008KT 04/M00 A2993 RMK A01 T00391002  RH  075%=      5-min Rain = 0
KPD4 181026Z 23008KT 04/M00 A2993 RMK A01 T00391002  RH  075%=      5-min Rain = 0
KPD4 181027Z 23008KT 04/M00 A2992 RMK A01 T00391002  RH  074%=      5-min Rain = 0
KPD4 181028Z 23008KT 04/M00 A2992 RMK A01 T00401002  RH  074%=      5-min Rain = 0
KPD4 181029Z 23008KT 04/M00 A2992 RMK A01 T00391003  RH  074%=      5-min Rain = 0
KPD4 181030Z 23008KT 04/M00 A2992 RMK A01 T00391003  RH  074%=      5-min Rain = 0
KPD4 181031Z 23008KT 04/M00 A2992 RMK A01 T00391003  RH  074%=      5-min Rain = 0
KPD4 181032Z 23007KT 04/M00 A2992 RMK A01 T00391002  RH  074%=      5-min Rain = 0
KPD4 181033Z 23008KT 04/M00 A2992 RMK A01 T00391003  RH  074%=      5-min Rain = 0
KPD4 181034Z 23008KT 04/M00 A2992 RMK A01 T00391003  RH  074%=      5-min Rain = 0
KPD4 181035Z 23008KT 04/M00 A2992 RMK A01 T00391003  RH  074%=      5-min Rain = 0
KPD4 181036Z 23008KT 04/M00 A2992 RMK A01 T00381003  RH  074%=      5-min Rain = 0
KPD4 181037Z 23007KT 04/M00 A2992 RMK A01 T00381004  RH  074%=      5-min Rain = 0
KPD4 181038Z 23008KT 04/M00 A2992 RMK A01 T00371004  RH  075%=      5-min Rain = 0
KPD4 181039Z 23008KT 04/M00 A2992 RMK A01 T00361004  RH  075%=      5-min Rain = 0
KPD4 181040Z 23008KT 04/M00 A2992 RMK A01 T00361004  RH  075%=      5-min Rain = 0
KPD4 181041Z 23008KT 04/M00 A2992 RMK A01 T00361004  RH  075%=      5-min Rain = 0
KPD4 181042Z 23008KT 04/M00 A2992 RMK A01 T00371004  RH  075%=      5-min Rain = 0
KPD4 181043Z 24009KT 04/M00 A2992 RMK A01 T00361004  RH  075%=      5-min Rain = 0
KPD4 181044Z 24009KT 04/M00 A2992 RMK A01 T00361003  RH  075%=      5-min Rain = 0
KPD4 181045Z 24008KT 04/M00 A2992 RMK A01 T00371003  RH  075%=      5-min Rain = 0
KPD4 181046Z 24009KT 04/M00 A2992 RMK A01 T00381003  RH  075%=      5-min Rain = 0
KPD4 181047Z 23009KT 04/M00 A2992 RMK A01 T00381004  RH  074%=      5-min Rain = 0
KPD4 181048Z 24009KT 04/M00 A2992 RMK A01 T00381003  RH  075%=      5-min Rain = 0
KPD4 181049Z 24009KT 04/M00 A2992 RMK A01 T00371003  RH  075%=      5-min Rain = 0
KPD4 181050Z 24009KT 04/M00 A2992 RMK A01 T00371003  RH  075%=      5-min Rain = 0
KPD4 181051Z 24009KT 04/M00 A2992 RMK A01 T00381003  RH  075%=      5-min Rain = 0
KPD4 181052Z 24009KT 04/M00 A2992 RMK A01 T00381003  RH  074%=      5-min Rain = 0
KPD4 181053Z 24008KT 04/M00 A2992 RMK A01 T00391003  RH  074%=      5-min Rain = 0
KPD4 181054Z 24009KT 04/M00 A2992 RMK A01 T00391003  RH  074%=      5-min Rain = 0
KPD4 181055Z 24009KT 04/M00 A2992 RMK A01 T00381004  RH  074%=      5-min Rain = 0
KPD4 181056Z 24009KT 04/M00 A2992 RMK A01 T00371004  RH  074%=      5-min Rain = 0
KPD4 181057Z 24009KT 04/M00 A2992 RMK A01 T00381003  RH  075%=      5-min Rain = 0
KPD4 181058Z 24009KT 04/M00 A2992 RMK A01 T00381003  RH  074%=      5-min Rain = 0
KPD4 181059Z 23008KT 04/M00 A2992 RMK A01 T00381004  RH  074%=      5-min Rain = 0
KPD4 181100Z 23008KT 04/M00 A2992 RMK A01 T00371004  RH  074%=      5-min Rain = 0
KPD4 181101Z 23008KT 04/M00 A2991 RMK A01 T00371004  RH  074%=      5-min Rain = 0
KPD4 181102Z 23008KT 04/M01 A2991 RMK A01 T00361005  RH  075%=      5-min Rain = 0
KPD4 181103Z 23008KT 04/M01 A2991 RMK A01 T00361005  RH  075%=      5-min Rain = 0
KPD4 181104Z 23009KT 04/M01 A2991 RMK A01 T00351005  RH  075%=      5-min Rain = 0
KPD4 181105Z 23008KT 04/M01 A2991 RMK A01 T00351005  RH  075%=      5-min Rain = 0
KPD4 181106Z 23008KT 03/M01 A2991 RMK A01 T00341005  RH  075%=      5-min Rain = 0
KPD4 181107Z 23008KT 03/M01 A2991 RMK A01 T00341005  RH  076%=      5-min Rain = 0
KPD4 181108Z 23008KT 03/M01 A2991 RMK A01 T00331006  RH  075%=      5-min Rain = 0
KPD4 181109Z 23008KT 03/M01 A2991 RMK A01 T00331005  RH  076%=      5-min Rain = 0
KPD4 181110Z 23007KT 03/M01 A2991 RMK A01 T00331006  RH  076%=      5-min Rain = 0
KPD4 181111Z 23007KT 03/M01 A2991 RMK A01 T00321006  RH  076%=      5-min Rain = 0
KPD4 181112Z 23007KT 03/M01 A2991 RMK A01 T00321007  RH  076%=      5-min Rain = 0
KPD4 181113Z 23007KT 03/M01 A2991 RMK A01 T00311007  RH  076%=      5-min Rain = 0
KPD4 181114Z 23007KT 03/M01 A2991 RMK A01 T00301007  RH  076%=      5-min Rain = 0
KPD4 181115Z 23007KT 03/M01 A2991 RMK A01 T00301007  RH  077%=      5-min Rain = 0
KPD4 181116Z 23007KT 03/M01 A2991 RMK A01 T00291007  RH  077%=      5-min Rain = 0
KPD4 181117Z 23008KT 03/M01 A2991 RMK A01 T00291007  RH  077%=      5-min Rain = 0
KPD4 181118Z 24008KT 03/M01 A2991 RMK A01 T00281007  RH  077%=      5-min Rain = 0
KPD4 181119Z 24008KT 03/M01 A2992 RMK A01 T00281008  RH  077%=      5-min Rain = 0
KPD4 181120Z 24008KT 03/M01 A2992 RMK A01 T00271008  RH  078%=      5-min Rain = 0
KPD4 181121Z 24008KT 03/M01 A2992 RMK A01 T00271008  RH  078%=      5-min Rain = 0
KPD4 181122Z 24008KT 03/M01 A2992 RMK A01 T00271008  RH  078%=      5-min Rain = 0
KPD4 181123Z 24008KT 03/M01 A2992 RMK A01 T00261009  RH  078%=      5-min Rain = 0
KPD4 181124Z 24008KT 03/M01 A2992 RMK A01 T00251009  RH  078%=      5-min Rain = 0
KPD4 181125Z 24008KT 02/M01 A2992 RMK A01 T00241009  RH  078%=      5-min Rain = 0
KPD4 181126Z 24008KT 02/M01 A2991 RMK A01 T00241009  RH  079%=      5-min Rain = 0
KPD4 181127Z 24007KT 02/M01 A2991 RMK A01 T00241009  RH  079%=      5-min Rain = 0
KPD4 181128Z 24007KT 02/M01 A2991 RMK A01 T00231010  RH  079%=      5-min Rain = 0
KPD4 181129Z 23007KT 02/M01 A2991 RMK A01 T00231010  RH  079%=      5-min Rain = 0
KPD4 181130Z 23007KT 02/M01 A2991 RMK A01 T00221011  RH  079%=      5-min Rain = 0
KPD4 181131Z 23007KT 02/M01 A2991 RMK A01 T00211011  RH  079%=      5-min Rain = 0
KPD4 181132Z 23007KT 02/M01 A2991 RMK A01 T00211011  RH  080%=      5-min Rain = 0
KPD4 181133Z 23008KT 02/M01 A2991 RMK A01 T00211010  RH  080%=      5-min Rain = 0
KPD4 181134Z 23007KT 02/M01 A2991 RMK A01 T00211010  RH  080%=      5-min Rain = 0
KPD4 181135Z 23008KT 02/M01 A2991 RMK A01 T00211010  RH  080%=      5-min Rain = 0
KPD4 181136Z 23008KT 02/M01 A2991 RMK A01 T00211010  RH  080%=      5-min Rain = 0
KPD4 181137Z 23008KT 02/M01 A2991 RMK A01 T00211010  RH  080%=      5-min Rain = 0
KPD4 181138Z 23008KT 02/M01 A2991 RMK A01 T00221009  RH  080%=      5-min Rain = 0
KPD4 181139Z 23008KT 02/M01 A2991 RMK A01 T00211010  RH  080%=      5-min Rain = 0
KPD4 181140Z 23008KT 02/M01 A2991 RMK A01 T00211010  RH  080%=      5-min Rain = 0
KPD4 181141Z 24008KT 02/M01 A2991 RMK A01 T00221009  RH  080%=      5-min Rain = 0
KPD4 181142Z 23008KT 02/M01 A2991 RMK A01 T00221010  RH  080%=      5-min Rain = 0
KPD4 181143Z 24008KT 02/M01 A2991 RMK A01 T00231009  RH  079%=      5-min Rain = 0
KPD4 181144Z 24008KT 02/M01 A2991 RMK A01 T00231010  RH  079%=      5-min Rain = 0
KPD4 181145Z 24008KT 02/M01 A2991 RMK A01 T00231009  RH  079%=      5-min Rain = 0
KPD4 181146Z 24008KT 02/M01 A2991 RMK A01 T00231010  RH  079%=      5-min Rain = 0
KPD4 181147Z 24007KT 02/M01 A2991 RMK A01 T00231010  RH  079%=      5-min Rain = 0
KPD4 181148Z 24007KT 02/M01 A2991 RMK A01 T00231010  RH  079%=      5-min Rain = 0
KPD4 181149Z 24008KT 02/M01 A2991 RMK A01 T00231010  RH  079%=      5-min Rain = 0
KPD4 181150Z 24008KT 02/M01 A2991 RMK A01 T00231010  RH  079%=      5-min Rain = 0
KPD4 181151Z 24008KT 02/M01 A2991 RMK A01 T00221011  RH  079%=      5-min Rain = 0
KPD4 181152Z 24007KT 02/M01 A2991 RMK A01 T00221011  RH  079%=      5-min Rain = 0
KPD4 181153Z 24007KT 02/M01 A2991 RMK A01 T00221010  RH  079%=      5-min Rain = 0
KPD4 181154Z 24007KT 02/M01 A2991 RMK A01 T00221011  RH  079%=      5-min Rain = 0
KPD4 181155Z 23006KT 02/M01 A2991 RMK A01 T00221011  RH  079%=      5-min Rain = 0
KPD4 181156Z 23006KT 02/M01 A2991 RMK A01 T00221010  RH  079%=      5-min Rain = 0
KPD4 181157Z 23006KT 02/M01 A2991 RMK A01 T00221010  RH  079%=      5-min Rain = 0
KPD4 181158Z 23006KT 02/M01 A2991 RMK A01 T00211011  RH  079%=      5-min Rain = 0
KPD4 181159Z 23006KT 02/M01 A2991 RMK A01 T00211011  RH  079%=      5-min Rain = 0
KPD4 181200Z 23007KT 02/M01 A2991 RMK A01 T00211011  RH  079%=      5-min Rain = 0
KPD4 181201Z 23007KT 02/M01 A2991 RMK A01 T00211011  RH  080%=      5-min Rain = 0
KPD4 181202Z 24007KT 02/M01 A2991 RMK A01 T00221010  RH  080%=      5-min Rain = 0
KPD4 181203Z 24007KT 02/M01 A2991 RMK A01 T00221009  RH  080%=      5-min Rain = 0
KPD4 181204Z 24007KT 02/M01 A2991 RMK A01 T00231009  RH  079%=      5-min Rain = 0
KPD4 181205Z 24007KT 02/M01 A2991 RMK A01 T00241009  RH  079%=      5-min Rain = 0
KPD4 181206Z 24007KT 02/M01 A2991 RMK A01 T00241009  RH  079%=      5-min Rain = 0
KPD4 181207Z 24006KT 03/M01 A2991 RMK A01 T00251008  RH  079%=      5-min Rain = 0
KPD4 181208Z 24007KT 03/M01 A2991 RMK A01 T00251008  RH  079%=      5-min Rain = 0
KPD4 181209Z 24007KT 03/M01 A2991 RMK A01 T00251009  RH  078%=      5-min Rain = 0
KPD4 181210Z 24007KT 03/M01 A2991 RMK A01 T00251008  RH  078%=      5-min Rain = 0
KPD4 181211Z 24007KT 03/M01 A2991 RMK A01 T00261008  RH  078%=      5-min Rain = 0
KPD4 181212Z 24007KT 03/M01 A2991 RMK A01 T00261009  RH  078%=      5-min Rain = 0
KPD4 181213Z 24008KT 03/M01 A2991 RMK A01 T00251009  RH  078%=      5-min Rain = 0
KPD4 181214Z 24008KT 03/M01 A2991 RMK A01 T00251009  RH  078%=      5-min Rain = 0
KPD4 181215Z 24008KT 03/M01 A2991 RMK A01 T00251009  RH  078%=      5-min Rain = 0
KPD4 181216Z 24008KT 03/M01 A2991 RMK A01 T00251009  RH  078%=      5-min Rain = 0
KPD4 181217Z 24008KT 02/M01 A2991 RMK A01 T00241010  RH  079%=      5-min Rain = 0
KPD4 181218Z 24008KT 02/M01 A2991 RMK A01 T00231010  RH  079%=      5-min Rain = 0
KPD4 181219Z 24009KT 02/M01 A2991 RMK A01 T00221011  RH  079%=      5-min Rain = 0
KPD4 181220Z 24009KT 02/M01 A2991 RMK A01 T00211011  RH  079%=      5-min Rain = 0
KPD4 181221Z 24009KT 02/M01 A2991 RMK A01 T00211011  RH  080%=      5-min Rain = 0
KPD4 181222Z 24009KT 02/M01 A2991 RMK A01 T00201011  RH  080%=      5-min Rain = 0
KPD4 181223Z 24009KT 02/M01 A2991 RMK A01 T00201011  RH  080%=      5-min Rain = 0
KPD4 181224Z 25009KT 02/M01 A2991 RMK A01 T00201011  RH  080%=      5-min Rain = 0
KPD4 181225Z 25008KT 02/M01 A2991 RMK A01 T00201010  RH  080%=      5-min Rain = 0
KPD4 181226Z 25008KT 02/M01 A2991 RMK A01 T00211010  RH  080%=      5-min Rain = 0
KPD4 181227Z 25008KT 02/M01 A2991 RMK A01 T00201010  RH  080%=      5-min Rain = 0
KPD4 181228Z 25009KT 02/M01 A2991 RMK A01 T00201011  RH  080%=      5-min Rain = 0
KPD4 181229Z 25009KT 02/M01 A2991 RMK A01 T00201011  RH  080%=      5-min Rain = 0
KPD4 181230Z 25009KT 02/M01 A2991 RMK A01 T00201011  RH  080%=      5-min Rain = 0
KPD4 181231Z 24008KT 02/M01 A2991 RMK A01 T00191012  RH  080%=      5-min Rain = 0
KPD4 181232Z 24008KT 02/M01 A2991 RMK A01 T00191012  RH  080%=      5-min Rain = 0
KPD4 181233Z 24008KT 02/M01 A2991 RMK A01 T00191012  RH  080%=      5-min Rain = 0
KPD4 181234Z 24008KT 02/M01 A2991 RMK A01 T00181012  RH  080%=      5-min Rain = 0
KPD4 181235Z 24008KT 02/M01 A2991 RMK A01 T00171013  RH  080%=      5-min Rain = 0
KPD4 181236Z 23008KT 02/M01 A2991 RMK A01 T00171013  RH  081%=      5-min Rain = 0
KPD4 181237Z 23007KT 02/M01 A2991 RMK A01 T00161013  RH  081%=      5-min Rain = 0
KPD4 181238Z 23007KT 02/M01 A2991 RMK A01 T00161012  RH  081%=      5-min Rain = 0
KPD4 181239Z 23007KT 02/M01 A2991 RMK A01 T00161012  RH  082%=      5-min Rain = 0
KPD4 181240Z 23007KT 02/M01 A2991 RMK A01 T00151012  RH  082%=      5-min Rain = 0
KPD4 181241Z 23007KT 02/M01 A2991 RMK A01 T00161012  RH  082%=      5-min Rain = 0
KPD4 181242Z 23007KT 02/M01 A2991 RMK A01 T00161012  RH  082%=      5-min Rain = 0
KPD4 181243Z 23008KT 02/M01 A2991 RMK A01 T00171011  RH  082%=      5-min Rain = 0
KPD4 181244Z 23008KT 02/M01 A2991 RMK A01 T00181011  RH  082%=      5-min Rain = 0
KPD4 181245Z 23007KT 02/M01 A2991 RMK A01 T00181011  RH  081%=      5-min Rain = 0
KPD4 181246Z 23007KT 02/M01 A2991 RMK A01 T00181011  RH  081%=      5-min Rain = 0
KPD4 181247Z 23007KT 02/M01 A2991 RMK A01 T00181011  RH  081%=      5-min Rain = 0
KPD4 181248Z 23007KT 02/M01 A2991 RMK A01 T00181011  RH  081%=      5-min Rain = 0
KPD4 181249Z 23007KT 02/M01 A2991 RMK A01 T00181010  RH  081%=      5-min Rain = 0
KPD4 181250Z 22007KT 02/M01 A2991 RMK A01 T00191010  RH  081%=      5-min Rain = 0
KPD4 181251Z 22007KT 02/M01 A2991 RMK A01 T00191010  RH  081%=      5-min Rain = 0
KPD4 181252Z 22007KT 02/M01 A2991 RMK A01 T00191010  RH  081%=      5-min Rain = 0
KPD4 181253Z 22007KT 02/M01 A2991 RMK A01 T00191010  RH  081%=      5-min Rain = 0
KPD4 181254Z 23007KT 02/M01 A2991 RMK A01 T00191010  RH  081%=      5-min Rain = 0
KPD4 181255Z 23008KT 02/M01 A2991 RMK A01 T00191010  RH  081%=      5-min Rain = 0
KPD4 181256Z 23007KT 02/M01 A2991 RMK A01 T00191010  RH  081%=      5-min Rain = 0
KPD4 181257Z 23007KT 02/M01 A2991 RMK A01 T00201010  RH  081%=      5-min Rain = 0
KPD4 181258Z 23007KT 02/M01 A2991 RMK A01 T00191010  RH  081%=      5-min Rain = 0
KPD4 181259Z 23007KT 02/M01 A2991 RMK A01 T00191010  RH  081%=      5-min Rain = 0
KPD4 181300Z 22007KT 02/M01 A2991 RMK A01 T00191010  RH  081%=      5-min Rain = 0
KPD4 181301Z 22007KT 02/M01 A2991 RMK A01 T00191010  RH  081%=      5-min Rain = 0
KPD4 181302Z 22007KT 02/M01 A2991 RMK A01 T00191010  RH  081%=      5-min Rain = 0
KPD4 181303Z 22007KT 02/M01 A2991 RMK A01 T00191010  RH  081%=      5-min Rain = 0
KPD4 181304Z 22008KT 02/M01 A2991 RMK A01 T00191011  RH  081%=      5-min Rain = 0
KPD4 181305Z 21007KT 02/M01 A2991 RMK A01 T00191010  RH  081%=      5-min Rain = 0
KPD4 181306Z 22007KT 02/M01 A2991 RMK A01 T00181011  RH  081%=      5-min Rain = 0
KPD4 181307Z 22007KT 02/M01 A2991 RMK A01 T00171012  RH  081%=      5-min Rain = 0
KPD4 181308Z 22008KT 02/M01 A2991 RMK A01 T00171011  RH  082%=      5-min Rain = 0
KPD4 181309Z 21008KT 02/M01 A2991 RMK A01 T00171011  RH  082%=      5-min Rain = 0
KPD4 181310Z 21008KT 02/M01 A2991 RMK A01 T00171011  RH  082%=      5-min Rain = 0
KPD4 181311Z 21008KT 02/M01 A299 RMK A01 T00171011  RH  082%=      5-min Rain = 0
KPD4 181312Z 22008KT 02/M01 A299 RMK A01 T00171010  RH  082%=      5-min Rain = 0
KPD4 181313Z 22008KT 02/M01 A2991 RMK A01 T00171010  RH  082%=      5-min Rain = 0
KPD4 181314Z 22007KT 02/M01 A2991 RMK A01 T00181009  RH  082%=      5-min Rain = 0
KPD4 181315Z 22006KT 02/M01 A2991 RMK A01 T00191009  RH  082%=      5-min Rain = 0
KPD4 181316Z 23006KT 02/M01 A2991 RMK A01 T00191009  RH  082%=      5-min Rain = 0
KPD4 181317Z 23006KT 02/M01 A2991 RMK A01 T00191009  RH  081%=      5-min Rain = 0
KPD4 181318Z 23006KT 02/M01 A2991 RMK A01 T00191009  RH  081%=      5-min Rain = 0
KPD4 181319Z 24005KT 02/M01 A2992 RMK A01 T00201009  RH  081%=      5-min Rain = 0
KPD4 181320Z 25004KT 02/M01 A2992 RMK A01 T00201010  RH  081%=      5-min Rain = 0
KPD4 181321Z 25004KT 02/M01 A2992 RMK A01 T00201010  RH  081%=      5-min Rain = 0
KPD4 181322Z 24005KT 02/M01 A2992 RMK A01 T00211009  RH  081%=      5-min Rain = 0
KPD4 181323Z 24005KT 02/M01 A2992 RMK A01 T00221009  RH  080%=      5-min Rain = 0
KPD4 181324Z 24006KT 02/M01 A2992 RMK A01 T00221010  RH  080%=      5-min Rain = 0
KPD4 181325Z 25006KT 02/M01 A2992 RMK A01 T00221010  RH  079%=      5-min Rain = 0
KPD4 181326Z 25007KT 02/M01 A2992 RMK A01 T00211011  RH  080%=      5-min Rain = 0
KPD4 181327Z 25007KT 02/M01 A2992 RMK A01 T00211010  RH  080%=      5-min Rain = 0
KPD4 181328Z 24007KT 02/M01 A2992 RMK A01 T00201011  RH  080%=      5-min Rain = 0
KPD4 181329Z 24007KT 02/M01 A2992 RMK A01 T00191012  RH  080%=      5-min Rain = 0
KPD4 181330Z 24006KT 02/M01 A2992 RMK A01 T00181012  RH  081%=      5-min Rain = 0
KPD4 181331Z 23006KT 02/M01 A2992 RMK A01 T00181011  RH  081%=      5-min Rain = 0
KPD4 181332Z 23005KT 02/M01 A2992 RMK A01 T00171011  RH  081%=      5-min Rain = 0
KPD4 181333Z 23004KT 02/M01 A2992 RMK A01 T00171012  RH  081%=      5-min Rain = 0
KPD4 181334Z 23004KT 02/M01 A2992 RMK A01 T00171012  RH  081%=      5-min Rain = 0
KPD4 181335Z 23004KT 02/M01 A2993 RMK A01 T00171012  RH  082%=      5-min Rain = 0
KPD4 181336Z 23004KT 02/M01 A2993 RMK A01 T00171011  RH  082%=      5-min Rain = 0
KPD4 181337Z 23005KT 02/M01 A2993 RMK A01 T00171011  RH  082%=      5-min Rain = 0
KPD4 181338Z 23005KT 02/M01 A2993 RMK A01 T00171011  RH  081%=      5-min Rain = 0
KPD4 181339Z 24005KT 02/M01 A2993 RMK A01 T00191010  RH  081%=      5-min Rain = 0
KPD4 181340Z 24006KT 02/M01 A2993 RMK A01 T00191011  RH  081%=      5-min Rain = 0
KPD4 181341Z 24007KT 02/M01 A2993 RMK A01 T00191011  RH  081%=      5-min Rain = 0
KPD4 181342Z 24008KT 02/M01 A2993 RMK A01 T00201010  RH  081%=      5-min Rain = 0
KPD4 181343Z 24008KT 02/M01 A2993 RMK A01 T00201010  RH  081%=      5-min Rain = 0
KPD4 181344Z 24007KT 02/M01 A2993 RMK A01 T00201010  RH  081%=      5-min Rain = 0
KPD4 181345Z 24007KT 02/M01 A2993 RMK A01 T00201010  RH  081%=      5-min Rain = 0
KPD4 181346Z 24007KT 02/M01 A2993 RMK A01 T00191011  RH  081%=      5-min Rain = 0
KPD4 181347Z 24007KT 02/M01 A2993 RMK A01 T00181011  RH  081%=      5-min Rain = 0
KPD4 181348Z 25007KT 02/M01 A2993 RMK A01 T00191011  RH  081%=      5-min Rain = 0
KPD4 181349Z 25007KT 02/M01 A2994 RMK A01 T00191010  RH  081%=      5-min Rain = 0
KPD4 181350Z 26007KT 02/M01 A2994 RMK A01 T00191010  RH  081%=      5-min Rain = 0
KPD4 181351Z 25007KT 02/M01 A2993 RMK A01 T00191010  RH  081%=      5-min Rain = 0
KPD4 181352Z 25007KT 02/M01 A2994 RMK A01 T00191010  RH  081%=      5-min Rain = 0
KPD4 181353Z 25007KT 02/M01 A2994 RMK A01 T00191010  RH  081%=      5-min Rain = 0
KPD4 181354Z 25006KT 02/M01 A2994 RMK A01 T00191010  RH  081%=      5-min Rain = 0
KPD4 181355Z 24005KT 02/M01 A2994 RMK A01 T00201010  RH  081%=      5-min Rain = 0
KPD4 181356Z 24004KT 02/M01 A2994 RMK A01 T00201009  RH  081%=      5-min Rain = 0
KPD4 181357Z 23003KT 02/M01 A2994 RMK A01 T00211009  RH  081%=      5-min Rain = 0
KPD4 181358Z 21003KT 02/M01 A2994 RMK A01 T00211008  RH  081%=      5-min Rain = 0
KPD4 181359Z 21003KT 02/M01 A2994 RMK A01 T00221008  RH  080%=      5-min Rain = 0
KPD4 181400Z 20003KT 02/M01 A2994 RMK A01 T00231008  RH  080%=      5-min Rain = 0
KPD4 181401Z 22003KT 02/M01 A2994 RMK A01 T00231008  RH  079%=      5-min Rain = 0
KPD4 181402Z 23004KT 02/M01 A2994 RMK A01 T00241009  RH  079%=      5-min Rain = 0
KPD4 181403Z 23004KT 02/M01 A2994 RMK A01 T00241009  RH  079%=      5-min Rain = 0
KPD4 181404Z 24004KT 02/M01 A2994 RMK A01 T00241008  RH  079%=      5-min Rain = 0
KPD4 181405Z 24004KT 03/M01 A2994 RMK A01 T00251007  RH  079%=      5-min Rain = 0
KPD4 181406Z 24004KT 03/M01 A2994 RMK A01 T00261007  RH  079%=      5-min Rain = 0
KPD4 181407Z 23004KT 03/M01 A2994 RMK A01 T00271006  RH  078%=      5-min Rain = 0
KPD4 181408Z 22003KT 03/M01 A2994 RMK A01 T00281007  RH  078%=      5-min Rain = 0
KPD4 181409Z 22003KT 03/M01 A2994 RMK A01 T00291006  RH  077%=      5-min Rain = 0
KPD4 181410Z 24002KT 03/M01 A2994 RMK A01 T00301006  RH  077%=      5-min Rain = 0
KPD4 181411Z 22003KT 03/M01 A2994 RMK A01 T00311006  RH  077%=      5-min Rain = 0
KPD4 181412Z 23003KT 03/M01 A2994 RMK A01 T00311006  RH  077%=      5-min Rain = 0
KPD4 181413Z 24003KT 03/M01 A2994 RMK A01 T00321006  RH  077%=      5-min Rain = 0
KPD4 181414Z 24003KT 03/M01 A2993 RMK A01 T00321006  RH  076%=      5-min Rain = 0
KPD4 181415Z 22004KT 03/M01 A2993 RMK A01 T00331006  RH  076%=      5-min Rain = 0
KPD4 181416Z 23004KT 03/M01 A2994 RMK A01 T00341005  RH  075%=      5-min Rain = 0
KPD4 181417Z 23003KT 04/M00 A2994 RMK A01 T00351004  RH  075%=      5-min Rain = 0
KPD4 181418Z 23002KT 04/M01 A2994 RMK A01 T00361005  RH  075%=      5-min Rain = 0
KPD4 181419Z 22002KT 04/M00 A2994 RMK A01 T00371004  RH  075%=      5-min Rain = 0
KPD4 181420Z 23002KT 04/M00 A2994 RMK A01 T00381004  RH  074%=      5-min Rain = 0
KPD4 181421Z 23002KT 04/M00 A2994 RMK A01 T00391003  RH  074%=      5-min Rain = 0
KPD4 181422Z 21002KT 04/M00 A2994 RMK A01 T00401003  RH  074%=      5-min Rain = 0
KPD4 181423Z 20002KT 04/M00 A2994 RMK A01 T00401003  RH  073%=      5-min Rain = 0
KPD4 181424Z 22001KT 04/M00 A2994 RMK A01 T00421002  RH  073%=      5-min Rain = 0
KPD4 181425Z 19002KT 04/M00 A2994 RMK A01 T00441003  RH  072%=      5-min Rain = 0
KPD4 181426Z 19001KT 05/M00 A2994 RMK A01 T00451003  RH  071%=      5-min Rain = 0
KPD4 181427Z 22001KT 05/M00 A2994 RMK A01 T00461002  RH  071%=      5-min Rain = 0
KPD4 181428Z 24002KT 05/M00 A2994 RMK A01 T00461003  RH  070%=      5-min Rain = 0
KPD4 181429Z 28002KT 05/M00 A2994 RMK A01 T00471003  RH  070%=      5-min Rain = 0
KPD4 181430Z 29002KT 05/M00 A2994 RMK A01 T00471002  RH  070%=      5-min Rain = 0
KPD4 181431Z 28002KT 05/M00 A2994 RMK A01 T00481002  RH  070%=      5-min Rain = 0
KPD4 181432Z 23002KT 05/00 A2994 RMK A01 T005000-0  RH  070%=      5-min Rain = 0
KPD4 181433Z 21002KT 05/00 A2994 RMK A01 T00520000  RH  069%=      5-min Rain = 0
KPD4 181434Z 23002KT 05/00 A2995 RMK A01 T00530001  RH  069%=      5-min Rain = 0
KPD4 181435Z 24003KT 05/00 A2995 RMK A01 T00540001  RH  069%=      5-min Rain = 0
KPD4 181436Z 25003KT 06/00 A2995 RMK A01 T00560002  RH  068%=      5-min Rain = 0
KPD4 181437Z 27003KT 06/00 A2995 RMK A01 T00570001  RH  067%=      5-min Rain = 0
KPD4 181438Z 25002KT 06/M00 A2995 RMK A01 T00571001  RH  066%=      5-min Rain = 0
KPD4 181439Z 24001KT 06/00 A2995 RMK A01 T00580001  RH  067%=      5-min Rain = 0
KPD4 181440Z 28001KT 06/00 A2995 RMK A01 T00580002  RH  067%=      5-min Rain = 0
KPD4 181441Z 26003KT 06/00 A2995 RMK A01 T00600004  RH  067%=      5-min Rain = 0
KPD4 181442Z 29005KT 06/00 A2995 RMK A01 T00630004  RH  066%=      5-min Rain = 0
KPD4 181443Z 27004KT 06/00 A2995 RMK A01 T00630002  RH  065%=      5-min Rain = 0
KPD4 181444Z 28006KT 06/00 A2995 RMK A01 T00640003  RH  065%=      5-min Rain = 0
KPD4 181445Z 27005KT 07/00 A2995 RMK A01 T00650002  RH  064%=      5-min Rain = 0
KPD4 181446Z 28005KT 07/00 A2995 RMK A01 T00650002  RH  064%=      5-min Rain = 0
KPD4 181447Z 28006KT 07/00 A2995 RMK A01 T00660003  RH  064%=      5-min Rain = 0
KPD4 181448Z 28005KT 07/00 A2995 RMK A01 T00680003  RH  064%=      5-min Rain = 0
KPD4 181449Z 28004KT 07/01 A2995 RMK A01 T00690005  RH  064%=      5-min Rain = 0
KPD4 181450Z 29004KT 07/01 A2995 RMK A01 T00710006  RH  063%=      5-min Rain = 0
KPD4 181451Z 28004KT 07/01 A2995 RMK A01 T00720005  RH  062%=      5-min Rain = 0
KPD4 181452Z 27004KT 07/01 A2995 RMK A01 T00730005  RH  062%=      5-min Rain = 0
KPD4 181453Z 28005KT 07/01 A2995 RMK A01 T00740006  RH  062%=      5-min Rain = 0
KPD4 181454Z 28004KT 08/01 A2995 RMK A01 T00750005  RH  061%=      5-min Rain = 0
KPD4 181455Z 27004KT 08/01 A2995 RMK A01 T00760008  RH  062%=      5-min Rain = 0
KPD4 181456Z 27004KT 08/01 A2995 RMK A01 T00780006  RH  061%=      5-min Rain = 0
KPD4 181457Z 27004KT 08/01 A2995 RMK A01 T00790006  RH  060%=      5-min Rain = 0
KPD4 181458Z 27003KT 08/01 A2995 RMK A01 T00800006  RH  060%=      5-min Rain = 0
KPD4 181459Z 28003KT 08/01 A2995 RMK A01 T00820007  RH  059%=      5-min Rain = 0
KPD4 181500Z 26002KT 08/01 A2995 RMK A01 T00830007  RH  059%=      5-min Rain = 0
KPD4 181501Z 29002KT 09/01 A2995 RMK A01 T00850009  RH  059%=      5-min Rain = 0
KPD4 181502Z 29003KT 09/01 A2995 RMK A01 T00870007  RH  057%=      5-min Rain = 0
KPD4 181503Z 27002KT 09/01 A2995 RMK A01 T00890008  RH  057%=      5-min Rain = 0
KPD4 181504Z 29003KT 09/01 A2995 RMK A01 T00910010  RH  057%=      5-min Rain = 0
KPD4 181505Z 31002KT 09/01 A2995 RMK A01 T00930010  RH  056%=      5-min Rain = 0
KPD4 181506Z 31003KT 10/01 A2995 RMK A01 T00950009  RH  055%=      5-min Rain = 0
KPD4 181507Z 32003KT 10/01 A2995 RMK A01 T00960007  RH  054%=      5-min Rain = 0
KPD4 181508Z 32004KT 10/01 A2995 RMK A01 T00960006  RH  053%=      5-min Rain = 0
KPD4 181509Z 30002KT 10/01 A2995 RMK A01 T00960006  RH  054%=      5-min Rain = 0
KPD4 181510Z 30002KT 10/01 A2995 RMK A01 T00990009  RH  054%=      5-min Rain = 0
KPD4 181511Z 32002KT 10/01 A2995 RMK A01 T01000008  RH  053%=      5-min Rain = 0
KPD4 181512Z 32002KT 10/01 A2995 RMK A01 T01010008  RH  052%=      5-min Rain = 0
KPD4 181513Z 33002KT 10/01 A2995 RMK A01 T01010008  RH  052%=      5-min Rain = 0
KPD4 181514Z 30002KT 10/01 A2995 RMK A01 T01020006  RH  051%=      5-min Rain = 0
KPD4 181515Z 30003KT 10/01 A2996 RMK A01 T01030008  RH  052%=      5-min Rain = 0
KPD4 181516Z 31003KT 10/01 A2996 RMK A01 T01040006  RH  051%=      5-min Rain = 0
KPD4 181517Z 31002KT 10/01 A2996 RMK A01 T01040005  RH  050%=      5-min Rain = 0
KPD4 181518Z 29002KT 11/01 A2995 RMK A01 T01050006  RH  050%=      5-min Rain = 0
KPD4 181519Z 32002KT 11/01 A2995 RMK A01 T01050006  RH  050%=      5-min Rain = 0
KPD4 181520Z 33001KT 11/01 A2995 RMK A01 T01060006  RH  050%=      5-min Rain = 0
KPD4 181521Z 29000KT 11/01 A2995 RMK A01 T01070006  RH  050%=      5-min Rain = 0
KPD4 181522Z 29002KT 11/01 A2995 RMK A01 T01080008  RH  050%=      5-min Rain = 0
KPD4 181523Z 29004KT 11/01 A2995 RMK A01 T01110008  RH  049%=      5-min Rain = 0
KPD4 181524Z 30004KT 11/01 A2995 RMK A01 T01120006  RH  048%=      5-min Rain = 0
KPD4 181525Z 28003KT 11/01 A2995 RMK A01 T01140008  RH  048%=      5-min Rain = 0
KPD4 181526Z 29002KT 12/01 A2996 RMK A01 T01160008  RH  048%=      5-min Rain = 0
KPD4 181527Z 31002KT 12/01 A2996 RMK A01 T01180007  RH  047%=      5-min Rain = 0
KPD4 181528Z 30003KT 12/01 A2996 RMK A01 T01180006  RH  046%=      5-min Rain = 0
KPD4 181529Z 30005KT 12/01 A2996 RMK A01 T01180007  RH  046%=      5-min Rain = 0
KPD4 181530Z 30006KT 12/01 A2996 RMK A01 T01200005  RH  045%=      5-min Rain = 0
KPD4 181531Z 30005KT 12/01 A2995 RMK A01 T01210005  RH  045%=      5-min Rain = 0
KPD4 181532Z 31003KT 12/01 A2995 RMK A01 T01230008  RH  045%=      5-min Rain = 0
KPD4 181533Z 29004KT 13/01 A2995 RMK A01 T01260008  RH  045%=      5-min Rain = 0
KPD4 181534Z 30005KT 13/01 A2995 RMK A01 T01270007  RH  044%=      5-min Rain = 0
KPD4 181535Z 30004KT 13/01 A2995 RMK A01 T01260007  RH  044%=      5-min Rain = 0
KPD4 181536Z 31004KT 13/01 A2995 RMK A01 T01270006  RH  044%=      5-min Rain = 0
KPD4 181537Z 30003KT 13/01 A2995 RMK A01 T01260006  RH  044%=      5-min Rain = 0
KPD4 181538Z 28003KT 13/01 A2995 RMK A01 T01260007  RH  044%=      5-min Rain = 0
KPD4 181539Z 26003KT 13/01 A2995 RMK A01 T01260007  RH  044%=      5-min Rain = 0
KPD4 181540Z 26003KT 13/01 A2995 RMK A01 T01270008  RH  044%=      5-min Rain = 0
KPD4 181541Z 27003KT 13/01 A2995 RMK A01 T01280007  RH  044%=      5-min Rain = 0
KPD4 181542Z 25004KT 13/01 A2995 RMK A01 T01280008  RH  044%=      5-min Rain = 0
KPD4 181543Z 25004KT 13/01 A2995 RMK A01 T01280007  RH  044%=      5-min Rain = 0
KPD4 181544Z 27004KT 13/01 A2995 RMK A01 T01280006  RH  043%=      5-min Rain = 0
KPD4 181545Z 27002KT 13/01 A2994 RMK A01 T01280006  RH  043%=      5-min Rain = 0
KPD4 181546Z 26003KT 13/01 A2994 RMK A01 T01300008  RH  043%=      5-min Rain = 0
KPD4 181547Z 27003KT 13/01 A2994 RMK A01 T01330008  RH  043%=      5-min Rain = 0
KPD4 181548Z 24003KT 13/01 A2994 RMK A01 T01340007  RH  042%=      5-min Rain = 0
KPD4 181549Z 26004KT 14/01 A2994 RMK A01 T01350007  RH  042%=      5-min Rain = 0
KPD4 181550Z 29004KT 14/01 A2994 RMK A01 T01350006  RH  041%=      5-min Rain = 0
KPD4 181551Z 28004KT 13/01 A2994 RMK A01 T01340006  RH  042%=      5-min Rain = 0
KPD4 181552Z 26005KT 14/01 A2995 RMK A01 T01350008  RH  042%=      5-min Rain = 0
KPD4 181553Z 27004KT 14/01 A2995 RMK A01 T01360007  RH  041%=      5-min Rain = 0
KPD4 181554Z 30004KT 14/01 A2995 RMK A01 T01370008  RH  041%=      5-min Rain = 0
KPD4 181555Z 28005KT 14/01 A2995 RMK A01 T01380007  RH  041%=      5-min Rain = 0
KPD4 181556Z 29006KT 14/01 A2995 RMK A01 T01390006  RH  040%=      5-min Rain = 0
KPD4 181557Z 30005KT 14/01 A2995 RMK A01 T01390007  RH  040%=      5-min Rain = 0
KPD4 181558Z 29004KT 14/01 A2995 RMK A01 T01390008  RH  041%=      5-min Rain = 0
KPD4 181559Z 30004KT 14/01 A2995 RMK A01 T01420008  RH  040%=      5-min Rain = 0
KPD4 181600Z 32004KT 14/01 A2995 RMK A01 T01420008  RH  040%=      5-min Rain = 0
KPD4 181601Z 32005KT 14/01 A2995 RMK A01 T01430006  RH  039%=      5-min Rain = 0
KPD4 181602Z 33005KT 14/01 A2995 RMK A01 T01430006  RH  039%=      5-min Rain = 0
KPD4 181603Z 32006KT 14/01 A2995 RMK A01 T01430005  RH  039%=      5-min Rain = 0
KPD4 181604Z 33007KT 14/01 A2996 RMK A01 T01440007  RH  039%=      5-min Rain = 0
KPD4 181605Z 33005KT 15/01 A2996 RMK A01 T01460006  RH  038%=      5-min Rain = 0
KPD4 181606Z 32005KT 15/01 A2996 RMK A01 T01450007  RH  039%=      5-min Rain = 0
KPD4 181607Z 33006KT 15/01 A2996 RMK A01 T01470009  RH  039%=      5-min Rain = 0
KPD4 181608Z 33007KT 15/01 A2996 RMK A01 T01490009  RH  038%=      5-min Rain = 0
KPD4 181609Z 34007KT 15/01 A2996 RMK A01 T01500009  RH  038%=      5-min Rain = 0
KPD4 181610Z 34007KT 15/01 A2996 RMK A01 T01500007  RH  038%=      5-min Rain = 0
KPD4 181611Z 34006KT 15/01 A2996 RMK A01 T01490008  RH  038%=      5-min Rain = 0
KPD4 181612Z 35006KT 15/01 A2996 RMK A01 T01490008  RH  038%=      5-min Rain = 0
KPD4 181613Z 33005KT 15/01 A2996 RMK A01 T01520010  RH  038%=      5-min Rain = 0
KPD4 181614Z 33006KT 16/01 A2996 RMK A01 T01550009  RH  037%=      5-min Rain = 0
KPD4 181615Z 34007KT 16/01 A2996 RMK A01 T01560006  RH  036%=      5-min Rain = 0
KPD4 181616Z 33005KT 16/01 A2996 RMK A01 T01570006  RH  036%=      5-min Rain = 0
KPD4 181617Z 33005KT 16/01 A2996 RMK A01 T01610006  RH  035%=      5-min Rain = 0
KPD4 181618Z 33006KT 16/01 A2996 RMK A01 T01610005  RH  035%=      5-min Rain = 0
KPD4 181619Z 31005KT 16/01 A2996 RMK A01 T01620005  RH  034%=      5-min Rain = 0
KPD4 181620Z 33005KT 16/01 A2996 RMK A01 T01620005  RH  035%=      5-min Rain = 0
KPD4 181621Z 32007KT 16/01 A2996 RMK A01 T01620005  RH  034%=      5-min Rain = 0
KPD4 181622Z 32008KT 16/00 A2995 RMK A01 T01610003  RH  034%=      5-min Rain = 0
KPD4 181623Z 33007KT 16/00 A2995 RMK A01 T01610003  RH  034%=      5-min Rain = 0
KPD4 181624Z 34007KT 16/00 A2995 RMK A01 T01610002  RH  034%=      5-min Rain = 0
KPD4 181625Z 34006KT 16/00 A2995 RMK A01 T01610004  RH  034%=      5-min Rain = 0
KPD4 181626Z 34004KT 16/00 A2996 RMK A01 T01610004  RH  034%=      5-min Rain = 0
KPD4 181627Z 36006KT 16/00 A2996 RMK A01 T01620004  RH  034%=      5-min Rain = 0
KPD4 181628Z 00006KT 16/00 A2996 RMK A01 T01620003  RH  034%=      5-min Rain = 0
KPD4 181629Z 35005KT 16/01 A2996 RMK A01 T01620005  RH  034%=      5-min Rain = 0
KPD4 181630Z 35006KT 16/01 A2996 RMK A01 T01640005  RH  034%=      5-min Rain = 0
KPD4 181631Z 00006KT 17/01 A2996 RMK A01 T01660005  RH  034%=      5-min Rain = 0
KPD4 181632Z 35006KT 17/01 A2996 RMK A01 T01670005  RH  033%=      5-min Rain = 0
KPD4 181633Z 35005KT 17/01 A2996 RMK A01 T01670005  RH  033%=      5-min Rain = 0
KPD4 181634Z 35005KT 17/01 A2996 RMK A01 T01670005  RH  033%=      5-min Rain = 0
KPD4 181635Z 33004KT 17/01 A2996 RMK A01 T01690006  RH  033%=      5-min Rain = 0
KPD4 181636Z 33004KT 17/01 A2996 RMK A01 T01710007  RH  033%=      5-min Rain = 0
KPD4 181637Z 33005KT 17/01 A2996 RMK A01 T01740008  RH  033%=      5-min Rain = 0
KPD4 181638Z 33005KT 18/01 A2996 RMK A01 T01750005  RH  032%=      5-min Rain = 0
KPD4 181639Z 32006KT 18/01 A2996 RMK A01 T01780007  RH  031%=      5-min Rain = 0
KPD4 181640Z 32006KT 18/01 A2995 RMK A01 T01800006  RH  031%=      5-min Rain = 0
KPD4 181641Z 33006KT 18/00 A2995 RMK A01 T01800004  RH  030%=      5-min Rain = 0
KPD4 181642Z 34006KT 18/00 A2995 RMK A01 T01810004  RH  030%=      5-min Rain = 0
KPD4 181643Z 33005KT 18/00 A2995 RMK A01 T01810003  RH  030%=      5-min Rain = 0
KPD4 181644Z 34004KT 18/00 A2995 RMK A01 T01810001  RH  030%=      5-min Rain = 0
KPD4 181645Z 36006KT 18/00 A2995 RMK A01 T01810003  RH  030%=      5-min Rain = 0
KPD4 181646Z 34004KT 18/00 A2995 RMK A01 T01810000  RH  029%=      5-min Rain = 0
KPD4 181647Z 31006KT 18/00 A2995 RMK A01 T01810001  RH  030%=      5-min Rain = 0
KPD4 181648Z 31005KT 18/00 A2995 RMK A01 T01800000  RH  030%=      5-min Rain = 0
KPD4 181649Z 31006KT 18/00 A2995 RMK A01 T01800001  RH  030%=      5-min Rain = 0
KPD4 181650Z 32007KT 18/00 A2995 RMK A01 T01830002  RH  029%=      5-min Rain = 0
KPD4 181651Z 33006KT 19/00 A2995 RMK A01 T01850001  RH  029%=      5-min Rain = 0
KPD4 181652Z 33006KT 19/00 A2995 RMK A01 T01870004  RH  029%=      5-min Rain = 0
KPD4 181653Z 34006KT 19/00 A2995 RMK A01 T018800-0  RH  028%=      5-min Rain = 0
KPD4 181654Z 34007KT 18/00 A2996 RMK A01 T018400-0  RH  029%=      5-min Rain = 0
KPD4 181655Z 34009KT 18/00 A2996 RMK A01 T018400-0  RH  029%=      5-min Rain = 0
KPD4 181656Z 35008KT 19/M00 A2996 RMK A01 T01861001  RH  028%=      5-min Rain = 0
KPD4 181657Z 34007KT 19/M00 A2996 RMK A01 T01871001  RH  028%=      5-min Rain = 0
KPD4 181658Z 34008KT 19/M00 A2996 RMK A01 T01871001  RH  028%=      5-min Rain = 0
KPD4 181659Z 34009KT 19/M00 A2996 RMK A01 T01871001  RH  028%=      5-min Rain = 0
KPD4 181700Z 33009KT 19/M00 A2996 RMK A01 T01871002  RH  028%=      5-min Rain = 0
KPD4 181701Z 34007KT 19/00 A2995 RMK A01 T018700-0  RH  028%=      5-min Rain = 0
KPD4 181702Z 34006KT 19/00 A2995 RMK A01 T018900-0  RH  028%=      5-min Rain = 0
KPD4 181703Z 32007KT 19/00 A2995 RMK A01 T01920002  RH  028%=      5-min Rain = 0
KPD4 181704Z 34006KT 19/00 A2996 RMK A01 T01930001  RH  027%=      5-min Rain = 0
KPD4 181705Z 34008KT 19/M00 A2996 RMK A01 T01931001  RH  027%=      5-min Rain = 0
KPD4 181706Z 35007KT 19/M00 A2996 RMK A01 T01931003  RH  027%=      5-min Rain = 0
KPD4 181707Z 36008KT 19/M00 A2996 RMK A01 T01921002  RH  027%=      5-min Rain = 0
KPD4 181708Z 35010KT 19/M00 A2996 RMK A01 T01921002  RH  027%=      5-min Rain = 0
KPD4 181709Z 34010KT 19/M00 A2996 RMK A01 T01941001  RH  027%=      5-min Rain = 0
KPD4 181710Z 35011KT 20/M00 A2996 RMK A01 T01961002  RH  027%=      5-min Rain = 0
KPD4 181711Z 35008KT 20/M00 A2996 RMK A01 T01951002  RH  026%=      5-min Rain = 0
KPD4 181712Z 35009KT 19/M00 A2996 RMK A01 T01941001  RH  027%=      5-min Rain = 0
KPD4 181713Z 35008KT 20/M00 A2996 RMK A01 T01951001  RH  027%=      5-min Rain = 0
KPD4 181714Z 35008KT 20/M00 A2996 RMK A01 T01951002  RH  027%=      5-min Rain = 0
KPD4 181715Z 36006KT 20/M00 A2996 RMK A01 T01951001  RH  027%=      5-min Rain = 0
KPD4 181716Z 36006KT 20/M00 A2996 RMK A01 T01951001  RH  027%=      5-min Rain = 0
KPD4 181717Z 02010KT 20/M00 A2996 RMK A01 T01981002  RH  026%=      5-min Rain = 0
KPD4 181718Z 00008KT 20/M00 A2996 RMK A01 T01991002  RH  026%=      5-min Rain = 0
KPD4 181719Z 34008G14KT 20/M00 A2996 RMK A01 T02001002  RH  026%=      5-min Rain = 0
KPD4 181720Z 35011KT 20/M00 A2996 RMK A01 T02011003  RH  025%=      5-min Rain = 0
KPD4 181721Z 35011KT 20/M00 A2996 RMK A01 T02011003  RH  025%=      5-min Rain = 0
KPD4 181722Z 00009KT 20/M00 A2996 RMK A01 T02001004  RH  025%=      5-min Rain = 0
KPD4 181723Z 36007KT 20/M00 A2996 RMK A01 T02001004  RH  025%=      5-min Rain = 0
KPD4 181724Z 36008KT 20/M00 A2996 RMK A01 T02031001  RH  025%=      5-min Rain = 0
KPD4 181725Z 01011KT 20/M00 A2996 RMK A01 T02041003  RH  025%=      5-min Rain = 0
KPD4 181726Z 01012KT 20/M00 A2996 RMK A01 T02041004  RH  025%=      5-min Rain = 0
KPD4 181727Z 01010KT 20/M00 A2996 RMK A01 T02031003  RH  025%=      5-min Rain = 0
KPD4 181728Z 01011KT 20/M00 A2996 RMK A01 T02041003  RH  025%=      5-min Rain = 0
KPD4 181729Z 00010KT 21/M00 A2996 RMK A01 T02051004  RH  025%=      5-min Rain = 0
KPD4 181730Z 35008KT 21/M00 A2996 RMK A01 T02051003  RH  025%=      5-min Rain = 0
KPD4 181731Z 01008KT 21/M00 A2996 RMK A01 T02051003  RH  025%=      5-min Rain = 0
KPD4 181732Z 01011KT 21/M00 A2996 RMK A01 T02061003  RH  025%=      5-min Rain = 0
KPD4 181733Z 00007KT 21/M01 A2996 RMK A01 T02061005  RH  024%=      5-min Rain = 0
KPD4 181734Z 01008KT 20/M00 A2996 RMK A01 T02041003  RH  025%=      5-min Rain = 0
KPD4 181735Z 02008KT 21/M00 A2996 RMK A01 T02051003  RH  025%=      5-min Rain = 0
KPD4 181736Z 00010KT 21/M00 A2996 RMK A01 T02061004  RH  025%=      5-min Rain = 0
KPD4 181737Z 00009KT 21/M00 A2996 RMK A01 T02071004  RH  024%=      5-min Rain = 0
KPD4 181738Z 35008KT 21/M00 A2996 RMK A01 T02071003  RH  024%=      5-min Rain = 0
KPD4 181739Z 35010KT 21/M00 A2996 RMK A01 T02091004  RH  024%=      5-min Rain = 0
KPD4 181740Z 35007KT 21/M00 A2996 RMK A01 T02091004  RH  024%=      5-min Rain = 0
KPD4 181741Z 35008KT 21/M00 A2996 RMK A01 T02091001  RH  024%=      5-min Rain = 0
KPD4 181742Z 01009KT 21/M00 A2996 RMK A01 T02131001  RH  024%=      5-min Rain = 0
KPD4 181743Z 00008KT 21/M00 A2996 RMK A01 T02131002  RH  024%=      5-min Rain = 0
KPD4 181744Z 35011KT 21/M00 A2995 RMK A01 T02131002  RH  024%=      5-min Rain = 0
KPD4 181745Z 01009KT 21/M00 A2995 RMK A01 T02121003  RH  024%=      5-min Rain = 0
KPD4 181746Z 01010KT 21/M00 A2995 RMK A01 T02121002  RH  024%=      5-min Rain = 0
KPD4 181747Z 00009KT 21/M00 A2995 RMK A01 T02141002  RH  024%=      5-min Rain = 0
KPD4 181748Z 36009KT 22/M00 A2995 RMK A01 T02151001  RH  024%=      5-min Rain = 0
KPD4 181749Z 35009KT 22/M00 A2995 RMK A01 T02171001  RH  023%=      5-min Rain = 0
KPD4 181750Z 34009KT 22/M00 A2995 RMK A01 T02161003  RH  023%=      5-min Rain = 0
KPD4 181751Z 34008KT 21/M00 A2995 RMK A01 T02141003  RH  024%=      5-min Rain = 0
KPD4 181752Z 35007KT 21/M00 A2995 RMK A01 T02131002  RH  024%=      5-min Rain = 0
KPD4 181753Z 36011KT 21/M00 A2995 RMK A01 T02131002  RH  024%=      5-min Rain = 0
KPD4 181754Z 00010KT 21/M00 A2995 RMK A01 T02131003  RH  024%=      5-min Rain = 0
KPD4 181755Z 01010KT 21/M00 A2995 RMK A01 T02131002  RH  024%=      5-min Rain = 0
KPD4 181756Z 36010KT 22/M00 A2995 RMK A01 T02151002  RH  024%=      5-min Rain = 0
KPD4 181757Z 00012KT 22/M00 A2995 RMK A01 T02161003  RH  023%=      5-min Rain = 0
KPD4 181758Z 01010KT 22/M00 A2995 RMK A01 T02161002  RH  023%=      5-min Rain = 0
KPD4 181759Z 00008KT 22/M00 A2995 RMK A01 T02161002  RH  023%=      5-min Rain = 0
KPD4 181800Z 01007KT 22/M00 A2995 RMK A01 T02161003  RH  023%=      5-min Rain = 0
KPD4 181801Z 36011KT 22/M00 A2995 RMK A01 T02171001  RH  023%=      5-min Rain = 0
KPD4 181802Z 36013KT 22/M00 A2994 RMK A01 T02181003  RH  023%=      5-min Rain = 0
KPD4 181803Z 01011KT 22/M00 A2994 RMK A01 T02181003  RH  023%=      5-min Rain = 0
KPD4 181804Z 01010KT 22/M00 A2994 RMK A01 T02171002  RH  023%=      5-min Rain = 0
KPD4 181805Z 00010KT 22/M00 A2994 RMK A01 T02191002  RH  023%=      5-min Rain = 0
KPD4 181806Z 36010KT 22/M00 A2994 RMK A01 T02201003  RH  023%=      5-min Rain = 0
KPD4 181807Z 34011KT 22/M00 A2994 RMK A01 T02181003  RH  023%=      5-min Rain = 0
KPD4 181808Z 34007KT 22/M00 A2994 RMK A01 T02171001  RH  023%=      5-min Rain = 0
KPD4 181809Z 01009KT 22/00 A2994 RMK A01 T02200001  RH  023%=      5-min Rain = 0
KPD4 181810Z 01013KT 22/00 A2994 RMK A01 T022300-0  RH  023%=      5-min Rain = 0
KPD4 181811Z 35012KT 22/00 A2994 RMK A01 T022300-0  RH  023%=      5-min Rain = 0
KPD4 181812Z 36013KT 22/M00 A2994 RMK A01 T02221001  RH  023%=      5-min Rain = 0
KPD4 181813Z 02012KT 22/M00 A2994 RMK A01 T02201002  RH  023%=      5-min Rain = 0
KPD4 181814Z 00013KT 22/M00 A2994 RMK A01 T02201001  RH  023%=      5-min Rain = 0
KPD4 181815Z 01011KT 22/M00 A2994 RMK A01 T02201002  RH  023%=      5-min Rain = 0
KPD4 181816Z 01011KT 22/M00 A2994 RMK A01 T02201001  RH  023%=      5-min Rain = 0
KPD4 181817Z 01009KT 22/M00 A2994 RMK A01 T02211001  RH  023%=      5-min Rain = 0
KPD4 181818Z 36008KT 22/00 A2994 RMK A01 T02230000  RH  023%=      5-min Rain = 0
KPD4 181819Z 00011KT 23/00 A2994 RMK A01 T02260001  RH  023%=      5-min Rain = 0
KPD4 181820Z 02012KT 23/00 A2993 RMK A01 T02270001  RH  022%=      5-min Rain = 0
KPD4 181821Z 02015KT 23/00 A2993 RMK A01 T02260001  RH  022%=      5-min Rain = 0
KPD4 181822Z 01014KT 23/M00 A2993 RMK A01 T02251001  RH  022%=      5-min Rain = 0
KPD4 181823Z 02016KT 22/00 A2993 RMK A01 T022300-0  RH  023%=      5-min Rain = 0
KPD4 181824Z 01018KT 22/00 A2993 RMK A01 T02220001  RH  023%=      5-min Rain = 0
KPD4 181825Z 35014KT 22/00 A2993 RMK A01 T02220002  RH  023%=      5-min Rain = 0
KPD4 181826Z 35017KT 22/00 A2993 RMK A01 T02240002  RH  023%=      5-min Rain = 0
KPD4 181827Z 00014KT 22/00 A2993 RMK A01 T02230002  RH  023%=      5-min Rain = 0
KPD4 181828Z 35013KT 22/00 A2993 RMK A01 T02220002  RH  023%=      5-min Rain = 0
KPD4 181829Z 34013KT 23/00 A2993 RMK A01 T02250004  RH  023%=      5-min Rain = 0
KPD4 181830Z 35012KT 23/00 A2993 RMK A01 T02260002  RH  023%=      5-min Rain = 0
KPD4 181831Z 34015G21KT 23/00 A2993 RMK A01 T02250002  RH  023%=      5-min Rain = 0
KPD4 181832Z 35018KT 23/00 A2993 RMK A01 T02250002  RH  023%=      5-min Rain = 0
KPD4 181833Z 35013KT 22/00 A2993 RMK A01 T02230001  RH  023%=      5-min Rain = 0
KPD4 181834Z 35012KT 22/00 A2993 RMK A01 T02220002  RH  023%=      5-min Rain = 0
KPD4 181835Z 01011KT 23/01 A2993 RMK A01 T02250005  RH  023%=      5-min Rain = 0
KPD4 181836Z 00014KT 23/00 A2993 RMK A01 T02290004  RH  023%=      5-min Rain = 0
KPD4 181837Z 35016KT 23/00 A2993 RMK A01 T02260001  RH  023%=      5-min Rain = 0
KPD4 181838Z 00019KT 22/00 A2992 RMK A01 T02240002  RH  023%=      5-min Rain = 0
KPD4 181839Z 01017KT 22/00 A2992 RMK A01 T02220001  RH  023%=      5-min Rain = 0
KPD4 181840Z 00014KT 22/00 A2992 RMK A01 T02220002  RH  023%=      5-min Rain = 0
KPD4 181841Z 01016KT 22/00 A2992 RMK A01 T02230002  RH  023%=      5-min Rain = 0
KPD4 181842Z 01017KT 22/00 A2992 RMK A01 T02220001  RH  023%=      5-min Rain = 0
KPD4 181843Z 01017KT 22/00 A2992 RMK A01 T02210002  RH  023%=      5-min Rain = 0
KPD4 181844Z 00015KT 22/00 A2992 RMK A01 T02200001  RH  023%=      5-min Rain = 0
KPD4 181845Z 00016KT 22/00 A2992 RMK A01 T02220003  RH  023%=      5-min Rain = 0
KPD4 181846Z 00016KT 22/00 A2992 RMK A01 T02230001  RH  023%=      5-min Rain = 0
KPD4 181847Z 01016KT 22/00 A2992 RMK A01 T02210000  RH  023%=      5-min Rain = 0
KPD4 181848Z 01014KT 22/00 A2992 RMK A01 T02200001  RH  023%=      5-min Rain = 0
KPD4 181849Z 02010KT 22/00 A2992 RMK A01 T02210002  RH  023%=      5-min Rain = 0
KPD4 181850Z 01012KT 22/00 A2992 RMK A01 T02210001  RH  023%=      5-min Rain = 0
KPD4 181851Z 01015KT 22/00 A2992 RMK A01 T02210001  RH  023%=      5-min Rain = 0
KPD4 181852Z 03014KT 22/00 A2992 RMK A01 T02210001  RH  023%=      5-min Rain = 0
KPD4 181853Z 02014KT 22/00 A2992 RMK A01 T02210001  RH  023%=      5-min Rain = 0
KPD4 181854Z 01012G17KT 22/00 A2992 RMK A01 T02210001  RH  023%=      5-min Rain = 0
KPD4 181855Z 01016KT 22/00 A2992 RMK A01 T02200001  RH  023%=      5-min Rain = 0
KPD4 181856Z 00017KT 22/00 A2992 RMK A01 T02220001  RH  023%=      5-min Rain = 0
KPD4 181857Z 00015KT 22/00 A2992 RMK A01 T02220000  RH  023%=      5-min Rain = 0
KPD4 181858Z 01014KT 22/00 A2992 RMK A01 T022000-0  RH  023%=      5-min Rain = 0
KPD4 181859Z 35012KT 22/00 A2992 RMK A01 T02200001  RH  023%=      5-min Rain = 0
KPD4 181900Z 34012KT 22/00 A2992 RMK A01 T02220002  RH  023%=      5-min Rain = 0
KPD4 181901Z 35012KT 23/00 A2992 RMK A01 T02260003  RH  023%=      5-min Rain = 0
KPD4 181902Z 01015KT 23/00 A2992 RMK A01 T02260002  RH  023%=      5-min Rain = 0
KPD4 181903Z 01011KT 22/00 A2992 RMK A01 T02240001  RH  023%=      5-min Rain = 0
KPD4 181904Z 01012G18KT 23/00 A2992 RMK A01 T02250003  RH  023%=      5-min Rain = 0
KPD4 181905Z 00017KT 23/00 A2992 RMK A01 T02280003  RH  023%=      5-min Rain = 0
KPD4 181906Z 36016KT 23/00 A2992 RMK A01 T02250001  RH  023%=      5-min Rain = 0
KPD4 181907Z 00015KT 22/00 A2992 RMK A01 T02220000  RH  023%=      5-min Rain = 0
KPD4 181908Z 01016KT 22/00 A2992 RMK A01 T02210001  RH  023%=      5-min Rain = 0
KPD4 181909Z 00014KT 22/00 A2992 RMK A01 T02210001  RH  023%=      5-min Rain = 0
KPD4 181910Z 00012KT 22/00 A2992 RMK A01 T02230002  RH  023%=      5-min Rain = 0
KPD4 181911Z 01012KT 23/00 A2992 RMK A01 T02250003  RH  023%=      5-min Rain = 0
KPD4 181912Z 00014KT 23/00 A2992 RMK A01 T02270002  RH  022%=      5-min Rain = 0
KPD4 181913Z 00014KT 22/00 A2992 RMK A01 T02240000  RH  023%=      5-min Rain = 0
KPD4 181914Z 36014KT 22/00 A2992 RMK A01 T02210001  RH  023%=      5-min Rain = 0
KPD4 181915Z 01017KT 22/00 A2992 RMK A01 T02210001  RH  023%=      5-min Rain = 0
KPD4 181916Z 00015KT 22/00 A2992 RMK A01 T02200001  RH  023%=      5-min Rain = 0
KPD4 181917Z 00013KT 22/00 A2992 RMK A01 T02210001  RH  023%=      5-min Rain = 0
KPD4 181918Z 01008KT 22/00 A2992 RMK A01 T021900-0  RH  023%=      5-min Rain = 0
KPD4 181919Z 01010KT 22/00 A2992 RMK A01 T02180002  RH  024%=      5-min Rain = 0
KPD4 181920Z 01014KT 22/00 A2992 RMK A01 T02200002  RH  023%=      5-min Rain = 0
KPD4 181921Z 01014KT 22/00 A2992 RMK A01 T02220002  RH  023%=      5-min Rain = 0
KPD4 181922Z 01015KT 22/00 A2992 RMK A01 T02220001  RH  023%=      5-min Rain = 0
KPD4 181923Z 01016KT 22/00 A2992 RMK A01 T02210002  RH  023%=      5-min Rain = 0
KPD4 181924Z 01017KT 22/00 A2992 RMK A01 T02200001  RH  023%=      5-min Rain = 0
KPD4 181925Z 00014KT 22/00 A2992 RMK A01 T02200001  RH  023%=      5-min Rain = 0
KPD4 181926Z 01012KT 22/00 A2992 RMK A01 T02200001  RH  023%=      5-min Rain = 0
KPD4 181927Z 01013G18KT 22/00 A2992 RMK A01 T02220002  RH  023%=      5-min Rain = 0
KPD4 181928Z 01017KT 23/00 A2992 RMK A01 T02250002  RH  023%=      5-min Rain = 0
KPD4 181929Z 01017G22KT 22/00 A2992 RMK A01 T02230000  RH  023%=      5-min Rain = 0
KPD4 181930Z 00017KT 22/00 A2992 RMK A01 T02220000  RH  023%=      5-min Rain = 0
KPD4 181931Z 00014G19KT 22/M00 A2992 RMK A01 T02211001  RH  023%=      5-min Rain = 0
KPD4 181932Z 01014KT 22/00 A2992 RMK A01 T022000-0  RH  023%=      5-min Rain = 0
KPD4 181933Z 01012KT 22/00 A2992 RMK A01 T02210000  RH  023%=      5-min Rain = 0
KPD4 181934Z 01012KT 22/00 A2991 RMK A01 T02210000  RH  023%=      5-min Rain = 0
KPD4 181935Z 36011KT 22/00 A2991 RMK A01 T02220001  RH  023%=      5-min Rain = 0
KPD4 181936Z 36014KT 22/00 A2991 RMK A01 T02230000  RH  023%=      5-min Rain = 0
KPD4 181937Z 36015KT 22/00 A2991 RMK A01 T02220000  RH  023%=      5-min Rain = 0
KPD4 181938Z 01014KT 22/00 A2991 RMK A01 T022300-0  RH  023%=      5-min Rain = 0
KPD4 181939Z 00014KT 22/M00 A2991 RMK A01 T02231001  RH  023%=      5-min Rain = 0
KPD4 181940Z 00014KT 22/M00 A2991 RMK A01 T02221001  RH  023%=      5-min Rain = 0
KPD4 181941Z 02011KT 22/M00 A2991 RMK A01 T02201001  RH  023%=      5-min Rain = 0
KPD4 181942Z 01013KT 22/00 A2991 RMK A01 T02210000  RH  023%=      5-min Rain = 0
KPD4 181943Z 36016KT 23/00 A2991 RMK A01 T02250001  RH  023%=      5-min Rain = 0
KPD4 181944Z 00017KT 23/M00 A2991 RMK A01 T02251001  RH  022%=      5-min Rain = 0
KPD4 181945Z 36016KT 22/M00 A2991 RMK A01 T02231001  RH  023%=      5-min Rain = 0
KPD4 181946Z 36015KT 22/M00 A2991 RMK A01 T02231001  RH  023%=      5-min Rain = 0
KPD4 181947Z 01015KT 22/M00 A2991 RMK A01 T02221002  RH  023%=      5-min Rain = 0
KPD4 181948Z 00014KT 22/M00 A2991 RMK A01 T02211002  RH  023%=      5-min Rain = 0
KPD4 181949Z 35012KT 22/00 A2991 RMK A01 T022100-0  RH  023%=      5-min Rain = 0
KPD4 181950Z 35017KT 22/M00 A2991 RMK A01 T02231001  RH  023%=      5-min Rain = 0
KPD4 181951Z 36015KT 22/M00 A2991 RMK A01 T02221001  RH  023%=      5-min Rain = 0
KPD4 181952Z 36012KT 22/M00 A2991 RMK A01 T02221001  RH  023%=      5-min Rain = 0
KPD4 181953Z 36011KT 22/M00 A2991 RMK A01 T02231001  RH  023%=      5-min Rain = 0
KPD4 181954Z 01013KT 22/00 A2991 RMK A01 T02240000  RH  023%=      5-min Rain = 0
KPD4 181955Z 01012KT 23/00 A2991 RMK A01 T02250000  RH  022%=      5-min Rain = 0
KPD4 181956Z 35014KT 23/M00 A2991 RMK A01 T02261001  RH  022%=      5-min Rain = 0
KPD4 181957Z 36016KT 22/00 A2991 RMK A01 T022400-0  RH  023%=      5-min Rain = 0
KPD4 181958Z 00017KT 22/00 A2991 RMK A01 T022400-0  RH  022%=      5-min Rain = 0
KPD4 181959Z 00013KT 22/M00 A2991 RMK A01 T02231002  RH  022%=      5-min Rain = 0
KPD4 182000Z 00014KT 22/M00 A2991 RMK A01 T02221001  RH  023%=      5-min Rain = 0
KPD4 182001Z 01013KT 22/M00 A2991 RMK A01 T02221001  RH  023%=      5-min Rain = 0
KPD4 182002Z 01012KT 22/M00 A2991 RMK A01 T02221001  RH  023%=      5-min Rain = 0
KPD4 182003Z 01013G19KT 22/00 A2991 RMK A01 T022300-0  RH  023%=      5-min Rain = 0
KPD4 182004Z 00016KT 22/M00 A2991 RMK A01 T02241001  RH  022%=      5-min Rain = 0
KPD4 182005Z 36016KT 22/00 A2991 RMK A01 T022400-0  RH  022%=      5-min Rain = 0
KPD4 182006Z 35014KT 23/M00 A2991 RMK A01 T02251001  RH  022%=      5-min Rain = 0
KPD4 182007Z 35014KT 23/M00 A2991 RMK A01 T02251001  RH  022%=      5-min Rain = 0
KPD4 182008Z 36012KT 22/M00 A2991 RMK A01 T02241001  RH  022%=      5-min Rain = 0
KPD4 182009Z 35014KT 22/M00 A2991 RMK A01 T02241001  RH  023%=      5-min Rain = 0
KPD4 182010Z 34015KT 23/00 A2991 RMK A01 T02260001  RH  022%=      5-min Rain = 0
KPD4 182011Z 34015KT 23/00 A2991 RMK A01 T02280000  RH  022%=      5-min Rain = 0
KPD4 182012Z 35014KT 23/00 A2992 RMK A01 T02280000  RH  022%=      5-min Rain = 0
KPD4 182013Z 36012KT 23/00 A2992 RMK A01 T02280000  RH  022%=      5-min Rain = 0
KPD4 182014Z 36011KT 23/M00 A2992 RMK A01 T02271001  RH  022%=      5-min Rain = 0
KPD4 182015Z 35012KT 23/M00 A2992 RMK A01 T02261001  RH  022%=      5-min Rain = 0
KPD4 182016Z 34011KT 23/00 A2992 RMK A01 T022500-0  RH  022%=      5-min Rain = 0
KPD4 182017Z 35012KT 23/00 A2992 RMK A01 T02290002  RH  022%=      5-min Rain = 0
KPD4 182018Z 35014KT 23/00 A2992 RMK A01 T02320000  RH  022%=      5-min Rain = 0
KPD4 182019Z 34014KT 23/M00 A2991 RMK A01 T02311001  RH  021%=      5-min Rain = 0
KPD4 182020Z 34012KT 23/M00 A2991 RMK A01 T02301001  RH  022%=      5-min Rain = 0
KPD4 182021Z 35013KT 23/00 A2991 RMK A01 T023000-0  RH  022%=      5-min Rain = 0
KPD4 182022Z 36011KT 23/M00 A2991 RMK A01 T02291001  RH  022%=      5-min Rain = 0
KPD4 182023Z 36014KT 23/M00 A2991 RMK A01 T02291001  RH  022%=      5-min Rain = 0
KPD4 182024Z 36012KT 23/M00 A2991 RMK A01 T02291001  RH  022%=      5-min Rain = 0
KPD4 182025Z 35014KT 23/M00 A2991 RMK A01 T02291001  RH  022%=      5-min Rain = 0
KPD4 182026Z 36018KT 23/M00 A2991 RMK A01 T02291001  RH  022%=      5-min Rain = 0
KPD4 182027Z 34019KT 23/M00 A2991 RMK A01 T02281002  RH  022%=      5-min Rain = 0
KPD4 182028Z 35014KT 23/M00 A2991 RMK A01 T02261002  RH  022%=      5-min Rain = 0
KPD4 182029Z 34015KT 23/M00 A2991 RMK A01 T02251002  RH  022%=      5-min Rain = 0
KPD4 182030Z 34014KT 23/M00 A2991 RMK A01 T02261002  RH  022%=      5-min Rain = 0
KPD4 182031Z 34014KT 23/M00 A2991 RMK A01 T02261002  RH  022%=      5-min Rain = 0
KPD4 182032Z 35012KT 23/M00 A2991 RMK A01 T02261001  RH  022%=      5-min Rain = 0
KPD4 182033Z 35012KT 23/M00 A2991 RMK A01 T02261001  RH  022%=      5-min Rain = 0
KPD4 182034Z 01012KT 23/M00 A2991 RMK A01 T02271001  RH  022%=      5-min Rain = 0
KPD4 182035Z 00014KT 23/M00 A2991 RMK A01 T02281001  RH  022%=      5-min Rain = 0
KPD4 182036Z 01014KT 23/M00 A2991 RMK A01 T02271002  RH  022%=      5-min Rain = 0
KPD4 182037Z 01014G19KT 23/M00 A2991 RMK A01 T02261002  RH  022%=      5-min Rain = 0
KPD4 182038Z 02016KT 23/M00 A2991 RMK A01 T02261002  RH  022%=      5-min Rain = 0
KPD4 182039Z 01015KT 23/M00 A2991 RMK A01 T02251002  RH  022%=      5-min Rain = 0
KPD4 182040Z 00016KT 22/M00 A2991 RMK A01 T02241002  RH  022%=      5-min Rain = 0
KPD4 182041Z 00012KT 22/M00 A2991 RMK A01 T02231002  RH  022%=      5-min Rain = 0
KPD4 182042Z 01011KT 22/M00 A2991 RMK A01 T02231001  RH  023%=      5-min Rain = 0
KPD4 182043Z 01013KT 22/M00 A2991 RMK A01 T02241001  RH  022%=      5-min Rain = 0
KPD4 182044Z 36013KT 23/M00 A299 RMK A01 T02251001  RH  022%=      5-min Rain = 0
KPD4 182045Z 01010KT 23/M00 A299 RMK A01 T02261001  RH  022%=      5-min Rain = 0
KPD4 182046Z 02008KT 23/M00 A299 RMK A01 T02261001  RH  022%=      5-min Rain = 0
KPD4 182047Z 01009KT 23/00 A299 RMK A01 T022700-0  RH  022%=      5-min Rain = 0
KPD4 182048Z 03013KT 23/M00 A299 RMK A01 T02281001  RH  022%=      5-min Rain = 0
KPD4 182049Z 03011KT 23/M00 A299 RMK A01 T02281002  RH  022%=      5-min Rain = 0
KPD4 182050Z 00011KT 23/M00 A299 RMK A01 T02271001  RH  022%=      5-min Rain = 0
KPD4 182051Z 01010KT 23/M00 A299 RMK A01 T02271001  RH  022%=      5-min Rain = 0
KPD4 182052Z 35014KT 23/M00 A299 RMK A01 T02281001  RH  022%=      5-min Rain = 0
KPD4 182053Z 34015KT 23/M00 A299 RMK A01 T02291002  RH  022%=      5-min Rain = 0
KPD4 182054Z 34014KT 23/M00 A299 RMK A01 T02291003  RH  022%=      5-min Rain = 0
KPD4 182055Z 33013KT 23/M00 A299 RMK A01 T02281004  RH  022%=      5-min Rain = 0
KPD4 182056Z 35013KT 23/M00 A299 RMK A01 T02271004  RH  022%=      5-min Rain = 0
KPD4 182057Z 35014KT 23/M00 A299 RMK A01 T02281003  RH  021%=      5-min Rain = 0
KPD4 182058Z 34014KT 23/M00 A299 RMK A01 T02271004  RH  021%=      5-min Rain = 0
KPD4 182059Z 34014KT 23/M00 A299 RMK A01 T02261004  RH  022%=      5-min Rain = 0
KPD4 182100Z 34015KT 23/M00 A299 RMK A01 T02271004  RH  022%=      5-min Rain = 0
KPD4 182101Z 34009KT 23/M00 A299 RMK A01 T02261004  RH  022%=      5-min Rain = 0
KPD4 182102Z 33009KT 23/M00 A299 RMK A01 T02261004  RH  022%=      5-min Rain = 0
KPD4 182103Z 33010KT 23/M00 A299 RMK A01 T02281004  RH  021%=      5-min Rain = 0
KPD4 182104Z 33010KT 23/M01 A299 RMK A01 T02261005  RH  021%=      5-min Rain = 0
KPD4 182105Z 33011KT 23/M00 A299 RMK A01 T02261004  RH  022%=      5-min Rain = 0
KPD4 182106Z 33008KT 23/M00 A299 RMK A01 T02271004  RH  021%=      5-min Rain = 0
KPD4 182107Z 33008KT 23/M00 A299 RMK A01 T02281004  RH  022%=      5-min Rain = 0
KPD4 182108Z 33008KT 23/M00 A299 RMK A01 T02301003  RH  021%=      5-min Rain = 0
KPD4 182109Z 34008KT 23/M01 A2989 RMK A01 T02301005  RH  021%=      5-min Rain = 0
KPD4 182110Z 35010G18KT 23/M00 A2989 RMK A01 T02291004  RH  021%=      5-min Rain = 0
KPD4 182111Z 34013KT 23/M00 A2989 RMK A01 T02291004  RH  021%=      5-min Rain = 0
KPD4 182112Z 35014KT 23/M00 A2989 RMK A01 T02291003  RH  021%=      5-min Rain = 0
KPD4 182113Z 35011KT 23/M00 A2989 RMK A01 T02281004  RH  021%=      5-min Rain = 0
KPD4 182114Z 36011KT 23/M00 A2989 RMK A01 T02271003  RH  022%=      5-min Rain = 0
KPD4 182115Z 36011KT 23/M00 A2989 RMK A01 T02271004  RH  022%=      5-min Rain = 0
KPD4 182116Z 36009KT 23/M01 A2989 RMK A01 T02261005  RH  022%=      5-min Rain = 0
KPD4 182117Z 00010G19KT 23/M01 A2989 RMK A01 T02251005  RH  022%=      5-min Rain = 0
KPD4 182118Z 33015G21KT 23/M00 A2989 RMK A01 T02261004  RH  022%=      5-min Rain = 0
KPD4 182119Z 34012KT 23/M01 A2989 RMK A01 T02271005  RH  021%=      5-min Rain = 0
KPD4 182120Z 35012KT 23/M01 A2989 RMK A01 T02271006  RH  021%=      5-min Rain = 0
KPD4 182121Z 34011KT 23/M01 A2989 RMK A01 T02261006  RH  021%=      5-min Rain = 0
KPD4 182122Z 35012KT 23/M01 A2989 RMK A01 T02271006  RH  021%=      5-min Rain = 0
KPD4 182123Z 34012KT 23/M01 A2989 RMK A01 T02271006  RH  021%=      5-min Rain = 0
KPD4 182124Z 33010KT 23/M01 A299 RMK A01 T02271006  RH  021%=      5-min Rain = 0
KPD4 182125Z 35010KT 23/M01 A299 RMK A01 T02271005  RH  021%=      5-min Rain = 0
KPD4 182126Z 00011KT 23/M01 A2989 RMK A01 T02291006  RH  021%=      5-min Rain = 0
KPD4 182127Z 35009KT 23/M01 A2989 RMK A01 T02261007  RH  021%=      5-min Rain = 0
KPD4 182128Z 35010KT 23/M01 A2989 RMK A01 T02251007  RH  021%=      5-min Rain = 0
KPD4 182129Z 34011KT 22/M01 A2989 RMK A01 T02241008  RH  021%=      5-min Rain = 0
KPD4 182130Z 33014KT 22/M01 A2989 RMK A01 T02241008  RH  021%=      5-min Rain = 0
KPD4 182131Z 33013KT 23/M01 A2989 RMK A01 T02261007  RH  021%=      5-min Rain = 0
KPD4 182132Z 33013KT 23/M01 A299 RMK A01 T02271008  RH  021%=      5-min Rain = 0
KPD4 182133Z 33011KT 23/M01 A299 RMK A01 T02251009  RH  021%=      5-min Rain = 0
KPD4 182134Z 33010KT 23/M01 A299 RMK A01 T02251008  RH  021%=      5-min Rain = 0
KPD4 182135Z 33011KT 23/M01 A299 RMK A01 T02251008  RH  021%=      5-min Rain = 0
KPD4 182136Z 33012KT 23/M01 A299 RMK A01 T02251008  RH  021%=      5-min Rain = 0
KPD4 182137Z 34012KT 23/M01 A299 RMK A01 T02251008  RH  021%=      5-min Rain = 0
KPD4 182138Z 34012KT 23/M01 A299 RMK A01 T02251009  RH  021%=      5-min Rain = 0
KPD4 182139Z 33012KT 23/M01 A299 RMK A01 T02251009  RH  021%=      5-min Rain = 0
KPD4 182140Z 33011KT 22/M01 A299 RMK A01 T02241009  RH  021%=      5-min Rain = 0
KPD4 182141Z 33010KT 22/M01 A299 RMK A01 T02231008  RH  021%=      5-min Rain = 0
KPD4 182142Z 34010KT 22/M01 A2989 RMK A01 T02231008  RH  021%=      5-min Rain = 0
KPD4 182143Z 35011KT 22/M01 A2989 RMK A01 T02241008  RH  021%=      5-min Rain = 0
KPD4 182144Z 35014KT 23/M01 A2989 RMK A01 T02251008  RH  021%=      5-min Rain = 0
KPD4 182145Z 34013KT 23/M01 A2989 RMK A01 T02251008  RH  021%=      5-min Rain = 0
KPD4 182146Z 34013KT 23/M01 A299 RMK A01 T02251008  RH  021%=      5-min Rain = 0
KPD4 182147Z 34012KT 22/M01 A299 RMK A01 T02241009  RH  021%=      5-min Rain = 0
KPD4 182148Z 33011KT 22/M01 A2989 RMK A01 T02241009  RH  021%=      5-min Rain = 0
KPD4 182149Z 34011KT 22/M01 A2989 RMK A01 T02241008  RH  021%=      5-min Rain = 0
KPD4 182150Z 33012KT 23/M01 A2989 RMK A01 T02251008  RH  021%=      5-min Rain = 0
KPD4 182151Z 33011KT 23/M01 A299 RMK A01 T02251008  RH  021%=      5-min Rain = 0
KPD4 182152Z 34010KT 22/M01 A299 RMK A01 T02241008  RH  021%=      5-min Rain = 0
KPD4 182153Z 34009KT 22/M01 A299 RMK A01 T02241008  RH  021%=      5-min Rain = 0
KPD4 182154Z 34009KT 22/M01 A2989 RMK A01 T02241008  RH  021%=      5-min Rain = 0
KPD4 182155Z 36007KT 22/M01 A299 RMK A01 T02241007  RH  021%=      5-min Rain = 0
KPD4 182156Z 34009KT 22/M01 A299 RMK A01 T02231007  RH  022%=      5-min Rain = 0
KPD4 182157Z 33014KT 22/M01 A299 RMK A01 T02241007  RH  021%=      5-min Rain = 0
KPD4 182158Z 35012KT 22/M01 A299 RMK A01 T02231008  RH  021%=      5-min Rain = 0
KPD4 182159Z 35012KT 22/M01 A299 RMK A01 T02221008  RH  022%=      5-min Rain = 0
KPD4 182200Z 35010G15KT 22/M01 A299 RMK A01 T02221008  RH  022%=      5-min Rain = 0
KPD4 182201Z 35012KT 22/M01 A299 RMK A01 T02221007  RH  022%=      5-min Rain = 0
KPD4 182202Z 35011KT 22/M01 A299 RMK A01 T02221007  RH  022%=      5-min Rain = 0
KPD4 182203Z 35011KT 22/M01 A299 RMK A01 T02221007  RH  022%=      5-min Rain = 0
KPD4 182204Z 34011KT 22/M01 A299 RMK A01 T02211007  RH  022%=      5-min Rain = 0
KPD4 182205Z 33011KT 22/M01 A299 RMK A01 T02211007  RH  022%=      5-min Rain = 0
KPD4 182206Z 33010KT 22/M01 A299 RMK A01 T02211006  RH  022%=      5-min Rain = 0
KPD4 182207Z 34011KT 22/M01 A299 RMK A01 T02221005  RH  022%=      5-min Rain = 0
KPD4 182208Z 35011KT 22/M00 A299 RMK A01 T02221004  RH  022%=      5-min Rain = 0
KPD4 182209Z 34011KT 22/M00 A299 RMK A01 T02221004  RH  022%=      5-min Rain = 0
KPD4 182210Z 34010KT 22/M01 A299 RMK A01 T02211005  RH  022%=      5-min Rain = 0
KPD4 182211Z 34008KT 22/M01 A299 RMK A01 T02201005  RH  022%=      5-min Rain = 0
KPD4 182212Z 35006KT 22/M00 A299 RMK A01 T02201004  RH  022%=      5-min Rain = 0
KPD4 182213Z 34008KT 22/M00 A299 RMK A01 T02211003  RH  022%=      5-min Rain = 0
KPD4 182214Z 34007KT 22/M00 A299 RMK A01 T02221003  RH  022%=      5-min Rain = 0
KPD4 182215Z 33008KT 22/M00 A299 RMK A01 T02221003  RH  022%=      5-min Rain = 0
KPD4 182216Z 33009KT 22/M00 A299 RMK A01 T02221003  RH  022%=      5-min Rain = 0
KPD4 182217Z 34010KT 22/M00 A299 RMK A01 T02221004  RH  022%=      5-min Rain = 0
KPD4 182218Z 35011KT 22/M00 A299 RMK A01 T02211004  RH  022%=      5-min Rain = 0
KPD4 182219Z 35008KT 22/M01 A299 RMK A01 T02201005  RH  022%=      5-min Rain = 0
KPD4 182220Z 35010KT 22/M00 A299 RMK A01 T02201004  RH  022%=      5-min Rain = 0
KPD4 182221Z 34011KT 22/M01 A299 RMK A01 T02201005  RH  022%=      5-min Rain = 0
KPD4 182222Z 34012KT 22/M01 A299 RMK A01 T02201005  RH  022%=      5-min Rain = 0
KPD4 182223Z 34012KT 22/M01 A299 RMK A01 T02191005  RH  022%=      5-min Rain = 0
KPD4 182224Z 34012KT 22/M01 A299 RMK A01 T02191005  RH  022%=      5-min Rain = 0
KPD4 182225Z 35010KT 22/M01 A299 RMK A01 T02191005  RH  023%=      5-min Rain = 0
KPD4 182226Z 35012KT 22/M00 A299 RMK A01 T02191004  RH  023%=      5-min Rain = 0
KPD4 182227Z 35012KT 22/M00 A299 RMK A01 T02181004  RH  023%=      5-min Rain = 0
KPD4 182228Z 35010KT 22/M00 A299 RMK A01 T02171003  RH  023%=      5-min Rain = 0
KPD4 182229Z 35010KT 22/M00 A299 RMK A01 T02171003  RH  023%=      5-min Rain = 0
KPD4 182230Z 34011KT 22/M00 A299 RMK A01 T02181002  RH  023%=      5-min Rain = 0
KPD4 182231Z 34011KT 22/M00 A299 RMK A01 T02171002  RH  023%=      5-min Rain = 0
KPD4 182232Z 35009KT 22/M00 A299 RMK A01 T02171002  RH  023%=      5-min Rain = 0
KPD4 182233Z 35010KT 22/M00 A299 RMK A01 T02171001  RH  023%=      5-min Rain = 0
KPD4 182234Z 35010KT 22/M00 A299 RMK A01 T02161001  RH  023%=      5-min Rain = 0
KPD4 182235Z 35012KT 22/M00 A299 RMK A01 T02151001  RH  024%=      5-min Rain = 0
KPD4 182236Z 35011KT 22/M00 A299 RMK A01 T02151001  RH  024%=      5-min Rain = 0
KPD4 182237Z 35010KT 21/00 A299 RMK A01 T021400-0  RH  024%=      5-min Rain = 0
KPD4 182238Z 35010KT 21/00 A299 RMK A01 T02140000  RH  024%=      5-min Rain = 0
KPD4 182239Z 35010KT 21/00 A2991 RMK A01 T02140000  RH  024%=      5-min Rain = 0
KPD4 182240Z 34011KT 21/00 A2991 RMK A01 T02140000  RH  024%=      5-min Rain = 0
KPD4 182241Z 35009KT 21/00 A2991 RMK A01 T021300-0  RH  024%=      5-min Rain = 0
KPD4 182242Z 35010KT 21/00 A2991 RMK A01 T021300-0  RH  024%=      5-min Rain = 0
KPD4 182243Z 36009KT 21/00 A2991 RMK A01 T021300-0  RH  024%=      5-min Rain = 0
KPD4 182244Z 36010KT 21/00 A2991 RMK A01 T021200-0  RH  024%=      5-min Rain = 0
KPD4 182245Z 35010KT 21/M00 A2991 RMK A01 T02121001  RH  024%=      5-min Rain = 0
KPD4 182246Z 00009KT 21/M00 A2991 RMK A01 T02111001  RH  024%=      5-min Rain = 0
KPD4 182247Z 00009KT 21/M00 A2991 RMK A01 T02111001  RH  024%=      5-min Rain = 0
KPD4 182248Z 01008KT 21/M00 A2991 RMK A01 T02101001  RH  024%=      5-min Rain = 0
KPD4 182249Z 00008KT 21/M00 A2991 RMK A01 T02101001  RH  025%=      5-min Rain = 0
KPD4 182250Z 00008KT 21/00 A2991 RMK A01 T020900-0  RH  025%=      5-min Rain = 0
KPD4 182251Z 36008KT 21/00 A2991 RMK A01 T020800-0  RH  025%=      5-min Rain = 0
KPD4 182252Z 36007KT 21/00 A2991 RMK A01 T020800-0  RH  025%=      5-min Rain = 0
KPD4 182253Z 00010KT 21/00 A2991 RMK A01 T02070001  RH  025%=      5-min Rain = 0
KPD4 182254Z 00009KT 21/00 A2991 RMK A01 T02060002  RH  025%=      5-min Rain = 0
KPD4 182255Z 00008KT 21/00 A2991 RMK A01 T02060003  RH  026%=      5-min Rain = 0
KPD4 182256Z 00008KT 21/00 A2991 RMK A01 T02050003  RH  026%=      5-min Rain = 0
KPD4 182257Z 36009KT 20/00 A2991 RMK A01 T02040003  RH  026%=      5-min Rain = 0
KPD4 182258Z 00008KT 20/00 A2991 RMK A01 T02030003  RH  026%=      5-min Rain = 0
KPD4 182259Z 00009KT 20/00 A2991 RMK A01 T02030003  RH  026%=      5-min Rain = 0
KPD4 182300Z 00009KT 20/00 A2991 RMK A01 T02020003  RH  027%=      5-min Rain = 0
KPD4 182301Z 00009KT 20/00 A2991 RMK A01 T02010004  RH  027%=      5-min Rain = 0
KPD4 182302Z 00009KT 20/00 A2991 RMK A01 T02000004  RH  027%=      5-min Rain = 0
KPD4 182303Z 00009KT 20/00 A2991 RMK A01 T02000004  RH  027%=      5-min Rain = 0
KPD4 182304Z 00008KT 20/00 A2991 RMK A01 T01990004  RH  027%=      5-min Rain = 0
KPD4 182305Z 00008KT 20/00 A2991 RMK A01 T01980004  RH  027%=      5-min Rain = 0
KPD4 182306Z 01008KT 20/00 A2991 RMK A01 T01970004  RH  027%=      5-min Rain = 0
KPD4 182307Z 00008KT 20/00 A2991 RMK A01 T01960004  RH  028%=      5-min Rain = 0
KPD4 182308Z 00008KT 20/00 A2991 RMK A01 T01950004  RH  028%=      5-min Rain = 0
KPD4 182309Z 00008KT 19/00 A2991 RMK A01 T01940004  RH  028%=      5-min Rain = 0
KPD4 182310Z 00008KT 19/00 A2991 RMK A01 T01930004  RH  028%=      5-min Rain = 0
KPD4 182311Z 00008KT 19/00 A2991 RMK A01 T01930004  RH  028%=      5-min Rain = 0
KPD4 182312Z 00009KT 19/00 A2991 RMK A01 T01910004  RH  028%=      5-min Rain = 0
KPD4 182313Z 01008KT 19/00 A2992 RMK A01 T01910004  RH  028%=      5-min Rain = 0
KPD4 182314Z 01008KT 19/00 A2992 RMK A01 T01900003  RH  029%=      5-min Rain = 0
KPD4 182315Z 01008KT 19/00 A2992 RMK A01 T01890004  RH  029%=      5-min Rain = 0
KPD4 182316Z 01009KT 19/00 A2992 RMK A01 T01880003  RH  029%=      5-min Rain = 0
KPD4 182317Z 01008KT 19/00 A2992 RMK A01 T01870003  RH  029%=      5-min Rain = 0
KPD4 182318Z 01008KT 19/00 A2992 RMK A01 T01860003  RH  029%=      5-min Rain = 0
KPD4 182319Z 01008KT 19/00 A2992 RMK A01 T01850003  RH  029%=      5-min Rain = 0
KPD4 182320Z 01008KT 18/00 A2992 RMK A01 T01840003  RH  030%=      5-min Rain = 0
KPD4 182321Z 01008KT 18/00 A2992 RMK A01 T01830003  RH  030%=      5-min Rain = 0
KPD4 182322Z 00008KT 18/00 A2992 RMK A01 T01820003  RH  030%=      5-min Rain = 0
KPD4 182323Z 01008KT 18/00 A2992 RMK A01 T01810003  RH  030%=      5-min Rain = 0
KPD4 182324Z 00008KT 18/00 A2992 RMK A01 T01800003  RH  030%=      5-min Rain = 0
KPD4 182325Z 00008KT 18/00 A2992 RMK A01 T01790003  RH  030%=      5-min Rain = 0
KPD4 182326Z 00009KT 18/00 A2992 RMK A01 T01770002  RH  031%=      5-min Rain = 0
KPD4 182327Z 00009KT 18/00 A2992 RMK A01 T01770003  RH  031%=      5-min Rain = 0
KPD4 182328Z 00009KT 18/00 A2992 RMK A01 T01760002  RH  031%=      5-min Rain = 0
KPD4 182329Z 00009KT 18/00 A2992 RMK A01 T01760002  RH  031%=      5-min Rain = 0
KPD4 182330Z 00009KT 18/00 A2993 RMK A01 T01750002  RH  031%=      5-min Rain = 0
KPD4 182331Z 00008KT 17/00 A2993 RMK A01 T01730002  RH  031%=      5-min Rain = 0
KPD4 182332Z 00008KT 17/00 A2993 RMK A01 T01710001  RH  032%=      5-min Rain = 0
KPD4 182333Z 00009KT 17/00 A2993 RMK A01 T01690000  RH  032%=      5-min Rain = 0
KPD4 182334Z 00009KT 17/00 A2993 RMK A01 T01670001  RH  032%=      5-min Rain = 0
KPD4 182335Z 00009KT 17/00 A2993 RMK A01 T01650000  RH  033%=      5-min Rain = 0
KPD4 182336Z 00008KT 16/M00 A2993 RMK A01 T01621001  RH  033%=      5-min Rain = 0
KPD4 182337Z 00008KT 16/M00 A2993 RMK A01 T01601001  RH  033%=      5-min Rain = 0
KPD4 182338Z 00008KT 16/M00 A2993 RMK A01 T01581001  RH  034%=      5-min Rain = 0
KPD4 182339Z 00008KT 16/00 A2993 RMK A01 T015700-0  RH  034%=      5-min Rain = 0
KPD4 182340Z 36009KT 16/00 A2993 RMK A01 T01580000  RH  034%=      5-min Rain = 0
KPD4 182341Z 00009KT 16/00 A2993 RMK A01 T01580001  RH  034%=      5-min Rain = 0
KPD4 182342Z 36008KT 16/00 A2993 RMK A01 T01590001  RH  034%=      5-min Rain = 0
KPD4 182343Z 36008KT 16/00 A2993 RMK A01 T01580001  RH  034%=      5-min Rain = 0
KPD4 182344Z 36009KT 16/00 A2994 RMK A01 T01580001  RH  034%=      5-min Rain = 0
KPD4 182345Z 00009KT 16/00 A2994 RMK A01 T01570000  RH  034%=      5-min Rain = 0
KPD4 182346Z 00009KT 16/00 A2994 RMK A01 T01560000  RH  035%=      5-min Rain = 0
KPD4 182347Z 00009KT 16/00 A2994 RMK A01 T01560001  RH  035%=      5-min Rain = 0
KPD4 182348Z 00009KT 16/00 A2994 RMK A01 T01560001  RH  035%=      5-min Rain = 0
KPD4 182349Z 00009KT 16/00 A2994 RMK A01 T01560001  RH  035%=      5-min Rain = 0
KPD4 182350Z 00010KT 15/00 A2994 RMK A01 T01540001  RH  035%=      5-min Rain = 0
KPD4 182351Z 00010KT 15/00 A2994 RMK A01 T01540001  RH  035%=      5-min Rain = 0
KPD4 182352Z 00009KT 15/00 A2994 RMK A01 T01530001  RH  035%=      5-min Rain = 0
KPD4 182353Z 36009KT 15/00 A2994 RMK A01 T01520001  RH  035%=      5-min Rain = 0
KPD4 182354Z 36009KT 15/00 A2994 RMK A01 T01510001  RH  036%=      5-min Rain = 0
KPD4 182355Z 36010KT 15/00 A2994 RMK A01 T015000-0  RH  036%=      5-min Rain = 0
KPD4 182356Z 00010KT 15/00 A2994 RMK A01 T01490001  RH  036%=      5-min Rain = 0
KPD4 182357Z 00009KT 15/00 A2994 RMK A01 T01480001  RH  036%=      5-min Rain = 0
KPD4 182358Z 00009KT 15/00 A2994 RMK A01 T01480001  RH  036%=      5-min Rain = 0
KPD4 182359Z 00009KT 15/00 A2994 RMK A01 T01480001  RH  037%=      5-min Rain = 0
KPD4 190000Z 36009KT 15/00 A2994 RMK A01 T01490001  RH  036%=      5-min Rain = 0
KPD4 190001Z 00009KT 15/00 A2994 RMK A01 T01490001  RH  036%=      5-min Rain = 0
KPD4 190002Z 00009KT 15/00 A2994 RMK A01 T01490002  RH  036%=      5-min Rain = 0
KPD4 190003Z 00009KT 15/00 A2994 RMK A01 T01490001  RH  036%=      5-min Rain = 0
KPD4 190004Z 00009KT 15/00 A2994 RMK A01 T01500002  RH  036%=      5-min Rain = 0
KPD4 190005Z 00009KT 15/00 A2994 RMK A01 T01500002  RH  036%=      5-min Rain = 0
KPD4 190006Z 00009KT 15/00 A2994 RMK A01 T01510002  RH  036%=      5-min Rain = 0
KPD4 190007Z 00009KT 15/00 A2994 RMK A01 T01510002  RH  036%=      5-min Rain = 0
KPD4 190008Z 00009KT 15/00 A2994 RMK A01 T01510002  RH  036%=      5-min Rain = 0
KPD4 190009Z 00009KT 15/00 A2994 RMK A01 T01510001  RH  036%=      5-min Rain = 0
KPD4 190010Z 00009KT 15/00 A2994 RMK A01 T01500001  RH  036%=      5-min Rain = 0
KPD4 190011Z 00008KT 15/00 A2994 RMK A01 T01480000  RH  036%=      5-min Rain = 0
KPD4 190012Z 00008KT 15/00 A2994 RMK A01 T01470001  RH  037%=      5-min Rain = 0
KPD4 190013Z 00009KT 15/00 A2994 RMK A01 T01460001  RH  037%=      5-min Rain = 0
KPD4 190014Z 00008KT 15/00 A2994 RMK A01 T01460001  RH  037%=      5-min Rain = 0
KPD4 190015Z 00009KT 15/00 A2994 RMK A01 T01470001  RH  037%=      5-min Rain = 0
KPD4 190016Z 00009KT 15/00 A2994 RMK A01 T01470001  RH  037%=      5-min Rain = 0
KPD4 190017Z 00009KT 15/00 A2994 RMK A01 T01470001  RH  037%=      5-min Rain = 0
KPD4 190018Z 00009KT 15/00 A2994 RMK A01 T01470001  RH  037%=      5-min Rain = 0
KPD4 190019Z 00009KT 15/00 A2994 RMK A01 T01460001  RH  037%=      5-min Rain = 0
KPD4 190020Z 00009KT 15/00 A2994 RMK A01 T01460001  RH  037%=      5-min Rain = 0
KPD4 190021Z 00009KT 15/00 A2994 RMK A01 T01460001  RH  037%=      5-min Rain = 0
KPD4 190022Z 00009KT 15/00 A2994 RMK A01 T01460001  RH  037%=      5-min Rain = 0
KPD4 190023Z 00008KT 15/00 A2994 RMK A01 T01470002  RH  037%=      5-min Rain = 0
KPD4 190024Z 00008KT 15/00 A2994 RMK A01 T01470002  RH  037%=      5-min Rain = 0
KPD4 190025Z 00008KT 15/00 A2994 RMK A01 T01480003  RH  037%=      5-min Rain = 0
KPD4 190026Z 00008KT 15/00 A2994 RMK A01 T01490002  RH  037%=      5-min Rain = 0
KPD4 190027Z 00008KT 15/00 A2994 RMK A01 T01500002  RH  037%=      5-min Rain = 0
KPD4 190028Z 00008KT 15/00 A2994 RMK A01 T01490002  RH  037%=      5-min Rain = 0
KPD4 190029Z 00007KT 15/00 A2994 RMK A01 T01490002  RH  037%=      5-min Rain = 0
KPD4 190030Z 36007KT 15/00 A2994 RMK A01 T01480002  RH  037%=      5-min Rain = 0
KPD4 190031Z 36007KT 15/00 A2994 RMK A01 T01480002  RH  037%=      5-min Rain = 0
KPD4 190032Z 00007KT 15/00 A2994 RMK A01 T01470002  RH  037%=      5-min Rain = 0
KPD4 190033Z 00007KT 15/00 A2994 RMK A01 T01460001  RH  037%=      5-min Rain = 0
KPD4 190034Z 00007KT 15/00 A2994 RMK A01 T01460002  RH  037%=      5-min Rain = 0
KPD4 190035Z 00007KT 15/00 A2994 RMK A01 T01460002  RH  037%=      5-min Rain = 0
KPD4 190036Z 00007KT 15/00 A2994 RMK A01 T01470002  RH  037%=      5-min Rain = 0
KPD4 190037Z 00007KT 15/00 A2994 RMK A01 T01480003  RH  037%=      5-min Rain = 0
KPD4 190038Z 00007KT 15/00 A2994 RMK A01 T01480003  RH  037%=      5-min Rain = 0
KPD4 190039Z 00007KT 15/00 A2994 RMK A01 T01490002  RH  037%=      5-min Rain = 0
KPD4 190040Z 00007KT 15/00 A2994 RMK A01 T01480002  RH  037%=      5-min Rain = 0
KPD4 190041Z 01007KT 15/00 A2994 RMK A01 T01470002  RH  037%=      5-min Rain = 0
KPD4 190042Z 01006KT 15/00 A2994 RMK A01 T01470002  RH  037%=      5-min Rain = 0
KPD4 190043Z 01006KT 15/00 A2994 RMK A01 T01470002  RH  037%=      5-min Rain = 0
KPD4 190044Z 01005KT 15/00 A2994 RMK A01 T01470002  RH  037%=      5-min Rain = 0
KPD4 190045Z 01005KT 15/00 A2994 RMK A01 T01460002  RH  037%=      5-min Rain = 0
KPD4 190046Z 02005KT 15/00 A2994 RMK A01 T01460002  RH  037%=      5-min Rain = 0
KPD4 190047Z 02005KT 14/00 A2994 RMK A01 T01440001  RH  037%=      5-min Rain = 0
KPD4 190048Z 02005KT 14/00 A2994 RMK A01 T01420000  RH  038%=      5-min Rain = 0
KPD4 190049Z 02005KT 14/00 A2994 RMK A01 T01410001  RH  038%=      5-min Rain = 0
KPD4 190050Z 02004KT 14/00 A2994 RMK A01 T01430002  RH  038%=      5-min Rain = 0
KPD4 190051Z 01004KT 14/00 A2994 RMK A01 T01440002  RH  038%=      5-min Rain = 0
KPD4 190052Z 02004KT 15/00 A2994 RMK A01 T01450002  RH  038%=      5-min Rain = 0
KPD4 190053Z 02004KT 15/00 A2994 RMK A01 T01450001  RH  037%=      5-min Rain = 0
KPD4 190054Z 02004KT 14/00 A2994 RMK A01 T01430002  RH  038%=      5-min Rain = 0
KPD4 190055Z 02005KT 14/00 A2994 RMK A01 T01440003  RH  038%=      5-min Rain = 0
KPD4 190056Z 02004KT 15/00 A2994 RMK A01 T01460003  RH  038%=      5-min Rain = 0
KPD4 190057Z 02004KT 15/00 A2994 RMK A01 T01480004  RH  037%=      5-min Rain = 0
KPD4 190058Z 02004KT 15/00 A2994 RMK A01 T01500004  RH  037%=      5-min Rain = 0
KPD4 190059Z 02004KT 15/01 A2994 RMK A01 T01520005  RH  037%=      5-min Rain = 0
KPD4 190100Z 02004KT 15/01 A2994 RMK A01 T01540005  RH  036%=      5-min Rain = 0
KPD4 190101Z 03003KT 16/01 A2994 RMK A01 T01560005  RH  036%=      5-min Rain = 0
KPD4 190102Z 03001KT 15/00 A2994 RMK A01 T01540002  RH  035%=      5-min Rain = 0
KPD4 190103Z 04000KT 15/00 A2994 RMK A01 T014800-0  RH  036%=      5-min Rain = 0
KPD4 190104Z 09001KT 15/00 A2994 RMK A01 T01450001  RH  037%=      5-min Rain = 0
KPD4 190105Z 07001KT 14/00 A2994 RMK A01 T01430002  RH  038%=      5-min Rain = 0
KPD4 190106Z 08000KT 14/00 A2994 RMK A01 T01420002  RH  038%=      5-min Rain = 0
KPD4 190107Z 08000KT 14/00 A2994 RMK A01 T01410002  RH  038%=      5-min Rain = 0
KPD4 190108Z 08000KT 14/00 A2994 RMK A01 T01410002  RH  038%=      5-min Rain = 0
KPD4 190109Z 09000KT 14/00 A2994 RMK A01 T01410002  RH  039%=      5-min Rain = 0
KPD4 190110Z 12001KT 14/00 A2994 RMK A01 T01410002  RH  039%=      5-min Rain = 0
KPD4 190111Z 12001KT 14/00 A2994 RMK A01 T01400002  RH  039%=      5-min Rain = 0
KPD4 190112Z 12002KT 14/00 A2994 RMK A01 T01400003  RH  039%=      5-min Rain = 0
KPD4 190113Z 13002KT 14/00 A2994 RMK A01 T01390003  RH  039%=      5-min Rain = 0
KPD4 190114Z 15002KT 14/00 A2994 RMK A01 T01400004  RH  039%=      5-min Rain = 0
KPD4 190115Z 15002KT 14/00 A2994 RMK A01 T01420004  RH  039%=      5-min Rain = 0
KPD4 190116Z 15002KT 14/00 A2994 RMK A01 T01430003  RH  039%=      5-min Rain = 0
KPD4 190117Z 15002KT 14/00 A2994 RMK A01 T01420004  RH  039%=      5-min Rain = 0
KPD4 190118Z 15002KT 14/00 A2994 RMK A01 T01430004  RH  039%=      5-min Rain = 0
KPD4 190119Z 14001KT 14/00 A2994 RMK A01 T01430004  RH  039%=      5-min Rain = 0
KPD4 190120Z 15002KT 14/00 A2995 RMK A01 T01440004  RH  038%=      5-min Rain = 0
KPD4 190121Z 16001KT 15/00 A2995 RMK A01 T01450004  RH  038%=      5-min Rain = 0
KPD4 190122Z 17002KT 15/00 A2995 RMK A01 T01460004  RH  038%=      5-min Rain = 0
KPD4 190123Z 17002KT 15/00 A2995 RMK A01 T01460004  RH  038%=      5-min Rain = 0
KPD4 190124Z 18002KT 15/00 A2995 RMK A01 T01470004  RH  038%=      5-min Rain = 0
KPD4 190125Z 19003KT 15/00 A2995 RMK A01 T01470004  RH  038%=      5-min Rain = 0
KPD4 190126Z 19003KT 15/00 A2995 RMK A01 T01470004  RH  038%=      5-min Rain = 0
KPD4 190127Z 19002KT 15/00 A2995 RMK A01 T01450003  RH  038%=      5-min Rain = 0
KPD4 190128Z 21002KT 14/00 A2995 RMK A01 T01440003  RH  038%=      5-min Rain = 0
KPD4 190129Z 20002KT 14/00 A2995 RMK A01 T01440003  RH  038%=      5-min Rain = 0
KPD4 190130Z 20001KT 14/00 A2995 RMK A01 T01420002  RH  038%=      5-min Rain = 0
KPD4 190131Z 19001KT 14/00 A2995 RMK A01 T01410003  RH  039%=      5-min Rain = 0
KPD4 190132Z 19000KT 14/00 A2995 RMK A01 T01420003  RH  039%=      5-min Rain = 0
KPD4 190133Z 17000KT 14/00 A2995 RMK A01 T01420003  RH  039%=      5-min Rain = 0
KPD4 190134Z 00000KT 14/00 A2995 RMK A01 T01420003  RH  039%=      5-min Rain = 0
KPD4 190135Z 00000KT 14/00 A2995 RMK A01 T01420003  RH  039%=      5-min Rain = 0
KPD4 190136Z 00000KT 14/00 A2995 RMK A01 T01430004  RH  038%=      5-min Rain = 0
KPD4 190137Z 00000KT 14/00 A2995 RMK A01 T01430004  RH  039%=      5-min Rain = 0
KPD4 190138Z 00000KT 14/00 A2995 RMK A01 T01440004  RH  038%=      5-min Rain = 0
KPD4 190139Z 00000KT 15/00 A2995 RMK A01 T01450004  RH  038%=      5-min Rain = 0
KPD4 190140Z 00000KT 15/01 A2995 RMK A01 T01460005  RH  038%=      5-min Rain = 0
KPD4 190141Z 00000KT 15/00 A2995 RMK A01 T01460004  RH  038%=      5-min Rain = 0
KPD4 190142Z 00000KT 15/00 A2995 RMK A01 T01470004  RH  038%=      5-min Rain = 0
KPD4 190143Z 00000KT 15/01 A2995 RMK A01 T01470005  RH  038%=      5-min Rain = 0
KPD4 190144Z 00000KT 15/00 A2995 RMK A01 T01470004  RH  038%=      5-min Rain = 0
KPD4 190145Z 00000KT 15/00 A2995 RMK A01 T01470004  RH  038%=      5-min Rain = 0
KPD4 190146Z 00000KT 15/00 A2995 RMK A01 T01460003  RH  038%=      5-min Rain = 0
KPD4 190147Z 00000KT 15/00 A2995 RMK A01 T01450004  RH  038%=      5-min Rain = 0
KPD4 190148Z 10001KT 14/00 A2995 RMK A01 T01440004  RH  038%=      5-min Rain = 0
KPD4 190149Z 14001KT 14/00 A2995 RMK A01 T01430002  RH  038%=      5-min Rain = 0
KPD4 190150Z 19001KT 14/00 A2995 RMK A01 T013900-0  RH  038%=      5-min Rain = 0
KPD4 190151Z 19001KT 14/00 A2995 RMK A01 T01360001  RH  040%=      5-min Rain = 0
KPD4 190152Z 20001KT 14/00 A2995 RMK A01 T01350002  RH  040%=      5-min Rain = 0
KPD4 190153Z 19001KT 14/00 A2995 RMK A01 T01360003  RH  040%=      5-min Rain = 0
KPD4 190154Z 18002KT 14/00 A2995 RMK A01 T01370004  RH  040%=      5-min Rain = 0
KPD4 190155Z 18002KT 14/00 A2995 RMK A01 T01370003  RH  040%=      5-min Rain = 0
KPD4 190156Z 18002KT 14/00 A2995 RMK A01 T01360002  RH  040%=      5-min Rain = 0
KPD4 190157Z 16002KT 14/00 A2996 RMK A01 T01350002  RH  040%=      5-min Rain = 0
KPD4 190158Z 17002KT 13/00 A2996 RMK A01 T01320001  RH  040%=      5-min Rain = 0
KPD4 190159Z 17002KT 13/00 A2996 RMK A01 T01310001  RH  041%=      5-min Rain = 0
KPD4 190200Z 18003KT 13/00 A2996 RMK A01 T01300001  RH  041%=      5-min Rain = 0
KPD4 190201Z 18003KT 13/00 A2996 RMK A01 T01290000  RH  041%=      5-min Rain = 0
KPD4 190202Z 19004KT 13/M00 A2996 RMK A01 T01271001  RH  041%=      5-min Rain = 0
KPD4 190203Z 19004KT 12/M00 A2996 RMK A01 T01241002  RH  042%=      5-min Rain = 0
KPD4 190204Z 19004KT 12/M00 A2996 RMK A01 T01221002  RH  042%=      5-min Rain = 0
KPD4 190205Z 20005KT 12/M00 A2996 RMK A01 T01201003  RH  043%=      5-min Rain = 0
KPD4 190206Z 20004KT 12/M00 A2996 RMK A01 T01161003  RH  044%=      5-min Rain = 0
KPD4 190207Z 20005KT 12/M00 A2996 RMK A01 T01151002  RH  044%=      5-min Rain = 0
KPD4 190208Z 20005KT 11/M00 A2996 RMK A01 T01141002  RH  045%=      5-min Rain = 0
KPD4 190209Z 20005KT 11/M00 A2996 RMK A01 T01131002  RH  045%=      5-min Rain = 0
KPD4 190210Z 20005KT 11/M00 A2996 RMK A01 T01121002  RH  045%=      5-min Rain = 0
KPD4 190211Z 21005KT 11/M00 A2996 RMK A01 T01111002  RH  046%=      5-min Rain = 0
KPD4 190212Z 21005KT 11/M00 A2996 RMK A01 T01091003  RH  046%=      5-min Rain = 0
KPD4 190213Z 21005KT 11/M00 A2996 RMK A01 T01081002  RH  046%=      5-min Rain = 0
KPD4 190214Z 21004KT 11/M00 A2997 RMK A01 T01071002  RH  047%=      5-min Rain = 0
KPD4 190215Z 22004KT 11/M00 A2997 RMK A01 T01081001  RH  047%=      5-min Rain = 0
KPD4 190216Z 22004KT 11/00 A2997 RMK A01 T01120001  RH  047%=      5-min Rain = 0
KPD4 190217Z 22003KT 12/00 A2997 RMK A01 T01150001  RH  046%=      5-min Rain = 0
KPD4 190218Z 22003KT 12/00 A2997 RMK A01 T01170001  RH  045%=      5-min Rain = 0
KPD4 190219Z 21002KT 12/00 A2997 RMK A01 T01180002  RH  045%=      5-min Rain = 0
KPD4 190220Z 21002KT 12/00 A2997 RMK A01 T01220004  RH  044%=      5-min Rain = 0
KPD4 190221Z 20003KT 13/00 A2997 RMK A01 T01250004  RH  043%=      5-min Rain = 0
KPD4 190222Z 20002KT 13/00 A2997 RMK A01 T01270004  RH  043%=      5-min Rain = 0
KPD4 190223Z 20002KT 13/00 A2997 RMK A01 T01290004  RH  042%=      5-min Rain = 0
KPD4 190224Z 20002KT 13/00 A2997 RMK A01 T01310004  RH  042%=      5-min Rain = 0
KPD4 190225Z 20002KT 13/00 A2997 RMK A01 T01320003  RH  041%=      5-min Rain = 0
KPD4 190226Z 21003KT 13/00 A2997 RMK A01 T01310003  RH  041%=      5-min Rain = 0
KPD4 190227Z 21003KT 13/00 A2997 RMK A01 T01300002  RH  041%=      5-min Rain = 0
KPD4 190228Z 20003KT 13/00 A2997 RMK A01 T01310003  RH  042%=      5-min Rain = 0
KPD4 190229Z 21003KT 13/00 A2997 RMK A01 T01320002  RH  041%=      5-min Rain = 0
KPD4 190230Z 20004KT 13/00 A2997 RMK A01 T01300001  RH  041%=      5-min Rain = 0
KPD4 190231Z 20004KT 13/00 A2997 RMK A01 T01280000  RH  041%=      5-min Rain = 0
KPD4 190232Z 21004KT 13/M00 A2997 RMK A01 T01251002  RH  042%=      5-min Rain = 0
KPD4 190233Z 22004KT 12/M00 A2997 RMK A01 T01201004  RH  043%=      5-min Rain = 0
KPD4 190234Z 22004KT 12/M00 A2997 RMK A01 T01161003  RH  044%=      5-min Rain = 0
KPD4 190235Z 23004KT 12/M00 A2997 RMK A01 T01151002  RH  045%=      5-min Rain = 0
KPD4 190236Z 23004KT 12/M00 A2997 RMK A01 T01151001  RH  045%=      5-min Rain = 0
KPD4 190237Z 24004KT 12/00 A2997 RMK A01 T011500-0  RH  045%=      5-min Rain = 0
KPD4 190238Z 23004KT 12/00 A2997 RMK A01 T01160000  RH  045%=      5-min Rain = 0
KPD4 190239Z 23003KT 12/00 A2997 RMK A01 T01180001  RH  044%=      5-min Rain = 0
KPD4 190240Z 23003KT 12/00 A2997 RMK A01 T01190000  RH  044%=      5-min Rain = 0
KPD4 190241Z 23003KT 12/00 A2997 RMK A01 T011800-0  RH  044%=      5-min Rain = 0
KPD4 190242Z 23003KT 12/M00 A2997 RMK A01 T01181001  RH  044%=      5-min Rain = 0
KPD4 190243Z 24002KT 12/M00 A2997 RMK A01 T01171001  RH  044%=      5-min Rain = 0
KPD4 190244Z 24002KT 12/M00 A2997 RMK A01 T01161002  RH  044%=      5-min Rain = 0
KPD4 190245Z 24002KT 11/M00 A2997 RMK A01 T01131003  RH  045%=      5-min Rain = 0
KPD4 190246Z 24001KT 11/M00 A2997 RMK A01 T01101003  RH  045%=      5-min Rain = 0
KPD4 190247Z 24001KT 11/M00 A2997 RMK A01 T01091003  RH  046%=      5-min Rain = 0
KPD4 190248Z 23002KT 11/M00 A2997 RMK A01 T01071002  RH  047%=      5-min Rain = 0
KPD4 190249Z 24002KT 11/M00 A2997 RMK A01 T01071002  RH  047%=      5-min Rain = 0
KPD4 190250Z 24002KT 10/M01 A2997 RMK A01 T01041005  RH  047%=      5-min Rain = 0
KPD4 190251Z 25001KT 10/M01 A2997 RMK A01 T01001006  RH  048%=      5-min Rain = 0
KPD4 190252Z 25001KT 10/M00 A2997 RMK A01 T00991004  RH  049%=      5-min Rain = 0
KPD4 190253Z 25001KT 10/M00 A2997 RMK A01 T01001003  RH  049%=      5-min Rain = 0
KPD4 190254Z 25001KT 10/00 A2997 RMK A01 T01030001  RH  049%=      5-min Rain = 0
KPD4 190255Z 25001KT 11/00 A2997 RMK A01 T01110002  RH  047%=      5-min Rain = 0
KPD4 190256Z 25000KT 11/M00 A2997 RMK A01 T01091002  RH  046%=      5-min Rain = 0
KPD4 190257Z 00000KT 11/M00 A2997 RMK A01 T01051004  RH  047%=      5-min Rain = 0
KPD4 190258Z 00000KT 11/01 A2997 RMK A01 T01080005  RH  049%=      5-min Rain = 0
KPD4 190259Z 00000KT 12/01 A2997 RMK A01 T01190007  RH  046%=      5-min Rain = 0
KPD4 190300Z 00000KT 12/M01 A2996 RMK A01 T01161005  RH  043%=      5-min Rain = 0
KPD4 190301Z 00000KT 11/M00 A2996 RMK A01 T01091001  RH  046%=      5-min Rain = 0
KPD4 190302Z 00000KT 11/M00 A2996 RMK A01 T01091002  RH  046%=      5-min Rain = 0
KPD4 190303Z 25000KT 10/M01 A2996 RMK A01 T01041009  RH  046%=      5-min Rain = 0
KPD4 190304Z 25001KT 10/00 A2996 RMK A01 T01020000  RH  049%=      5-min Rain = 0
KPD4 190305Z 25001KT 11/01 A2996 RMK A01 T01130007  RH  048%=      5-min Rain = 0
KPD4 190306Z 25001KT 12/00 A2996 RMK A01 T01180004  RH  045%=      5-min Rain = 0
KPD4 190307Z 25001KT 12/01 A2996 RMK A01 T01210005  RH  045%=      5-min Rain = 0
KPD4 190308Z 06002KT 12/00 A2996 RMK A01 T01200000  RH  044%=      5-min Rain = 0
KPD4 190309Z 06002KT 12/00 A2996 RMK A01 T01180002  RH  045%=      5-min Rain = 0
KPD4 190310Z 06002KT 12/00 A2996 RMK A01 T01190003  RH  045%=      5-min Rain = 0
KPD4 190311Z 05003KT 12/00 A2996 RMK A01 T01210003  RH  044%=      5-min Rain = 0
KPD4 190312Z 05003KT 12/00 A2996 RMK A01 T01220003  RH  044%=      5-min Rain = 0
KPD4 190313Z 06003KT 12/00 A2996 RMK A01 T01210002  RH  044%=      5-min Rain = 0
KPD4 190314Z 05003KT 12/00 A2996 RMK A01 T01190001  RH  044%=      5-min Rain = 0
KPD4 190315Z 05004KT 12/M00 A2996 RMK A01 T01161001  RH  045%=      5-min Rain = 0
KPD4 190316Z 04004KT 11/M00 A2996 RMK A01 T01141002  RH  045%=      5-min Rain = 0
KPD4 190317Z 04005KT 11/M01 A2996 RMK A01 T01091005  RH  045%=      5-min Rain = 0
KPD4 190318Z 04005KT 10/M01 A2996 RMK A01 T01011010  RH  046%=      5-min Rain = 0
KPD4 190319Z 04006KT 10/M01 A2996 RMK A01 T00951009  RH  048%=      5-min Rain = 0
KPD4 190320Z 04006KT 09/M01 A2996 RMK A01 T00911008  RH  050%=      5-min Rain = 0
KPD4 190321Z 04006KT 09/M01 A2996 RMK A01 T00911005  RH  051%=      5-min Rain = 0
KPD4 190322Z 05006KT 09/M00 A2996 RMK A01 T00941002  RH  051%=      5-min Rain = 0
KPD4 190323Z 05007KT 10/M00 A2996 RMK A01 T00971001  RH  050%=      5-min Rain = 0
KPD4 190324Z 05007KT 10/M00 A2996 RMK A01 T00991001  RH  050%=      5-min Rain = 0
KPD4 190325Z 05007KT 10/M00 A2996 RMK A01 T00991001  RH  050%=      5-min Rain = 0
KPD4 190326Z 05008KT 10/M00 A2996 RMK A01 T01001001  RH  049%=      5-min Rain = 0
KPD4 190327Z 04008KT 10/00 A2996 RMK A01 T010100-0  RH  049%=      5-min Rain = 0
KPD4 190328Z 04008KT 11/00 A2996 RMK A01 T01050001  RH  049%=      5-min Rain = 0
KPD4 190329Z 04008KT 11/00 A2996 RMK A01 T01070001  RH  048%=      5-min Rain = 0
KPD4 190330Z 04008KT 11/M00 A2996 RMK A01 T01061001  RH  048%=      5-min Rain = 0
KPD4 190331Z 04008KT 10/00 A2996 RMK A01 T01040000  RH  048%=      5-min Rain = 0
KPD4 190332Z 04009KT 11/00 A2996 RMK A01 T01060001  RH  048%=      5-min Rain = 0
KPD4 190333Z 04009KT 11/00 A2996 RMK A01 T01090003  RH  048%=      5-min Rain = 0
KPD4 190334Z 04009KT 11/00 A2996 RMK A01 T01120003  RH  047%=      5-min Rain = 0
KPD4 190335Z 04009KT 11/00 A2996 RMK A01 T01140004  RH  047%=      5-min Rain = 0
KPD4 190336Z 04009KT 12/00 A2997 RMK A01 T01150003  RH  046%=      5-min Rain = 0
KPD4 190337Z 04009KT 12/00 A2997 RMK A01 T01150003  RH  046%=      5-min Rain = 0
KPD4 190338Z 04008KT 12/00 A2997 RMK A01 T01150003  RH  046%=      5-min Rain = 0
KPD4 190339Z 05008KT 12/00 A2997 RMK A01 T01150003  RH  046%=      5-min Rain = 0
KPD4 190340Z 04008KT 12/00 A2997 RMK A01 T01160004  RH  046%=      5-min Rain = 0
KPD4 190341Z 04008KT 12/00 A2997 RMK A01 T01160004  RH  046%=      5-min Rain = 0
KPD4 190342Z 05007KT 12/00 A2997 RMK A01 T01170004  RH  046%=      5-min Rain = 0
KPD4 190343Z 05006KT 12/00 A2997 RMK A01 T01170003  RH  046%=      5-min Rain = 0
KPD4 190344Z 05006KT 12/00 A2997 RMK A01 T01170003  RH  045%=      5-min Rain = 0
KPD4 190345Z 06003KT 12/00 A2997 RMK A01 T01170002  RH  045%=      5-min Rain = 0
KPD4 190346Z 05003KT 12/00 A2997 RMK A01 T01160002  RH  045%=      5-min Rain = 0
KPD4 190347Z 06004KT 11/00 A2997 RMK A01 T01130001  RH  046%=      5-min Rain = 0
KPD4 190348Z 07002KT 11/00 A2997 RMK A01 T01110001  RH  046%=      5-min Rain = 0
KPD4 190349Z 07002KT 11/00 A2997 RMK A01 T01100001  RH  047%=      5-min Rain = 0
KPD4 190350Z 07002KT 11/00 A2998 RMK A01 T01090001  RH  047%=      5-min Rain = 0
KPD4 190351Z 07002KT 11/00 A2998 RMK A01 T010700-0  RH  047%=      5-min Rain = 0
KPD4 190352Z 08001KT 11/M00 A2998 RMK A01 T01051001  RH  048%=      5-min Rain = 0
KPD4 190353Z 07001KT 10/M00 A2998 RMK A01 T01031001  RH  049%=      5-min Rain = 0
KPD4 190354Z 09001KT 10/M00 A2998 RMK A01 T01011001  RH  049%=      5-min Rain = 0
KPD4 190355Z 07001KT 10/M00 A2998 RMK A01 T00991001  RH  049%=      5-min Rain = 0
KPD4 190356Z 07002KT 10/M00 A2998 RMK A01 T00981001  RH  050%=      5-min Rain = 0
KPD4 190357Z 06003KT 10/M00 A2998 RMK A01 T00981001  RH  050%=      5-min Rain = 0
KPD4 190358Z 06003KT 10/00 A2998 RMK A01 T009800-0  RH  051%=      5-min Rain = 0
KPD4 190359Z 06003KT 10/00 A2997 RMK A01 T00980000  RH  051%=      5-min Rain = 0
KPD4 190400Z 07003KT 10/00 A2997 RMK A01 T00980001  RH  051%=      5-min Rain = 0
KPD4 190401Z 08003KT 10/00 A2997 RMK A01 T01000001  RH  050%=      5-min Rain = 0
KPD4 190402Z 10002KT 10/00 A2997 RMK A01 T01010001  RH  050%=      5-min Rain = 0
KPD4 190403Z 14002KT 10/00 A2997 RMK A01 T01020001  RH  049%=      5-min Rain = 0
KPD4 190404Z 16002KT 10/00 A2998 RMK A01 T01020000  RH  049%=      5-min Rain = 0
KPD4 190405Z 17003KT 10/00 A2998 RMK A01 T01020000  RH  049%=      5-min Rain = 0
KPD4 190406Z 19004KT 10/M00 A2998 RMK A01 T01011001  RH  049%=      5-min Rain = 0
KPD4 190407Z 20005KT 10/M00 A2998 RMK A01 T00971004  RH  049%=      5-min Rain = 0
KPD4 190408Z 22005KT 09/M01 A2998 RMK A01 T00921005  RH  050%=      5-min Rain = 0
KPD4 190409Z 22005KT 09/M01 A2998 RMK A01 T00881006  RH  052%=      5-min Rain = 0
KPD4 190410Z 22005KT 08/M01 A2998 RMK A01 T00841007  RH  053%=      5-min Rain = 0
KPD4 190411Z 22005KT 08/M01 A2998 RMK A01 T00791008  RH  054%=      5-min Rain = 0
KPD4 190412Z 22005KT 08/M01 A2998 RMK A01 T00781006  RH  055%=      5-min Rain = 0
KPD4 190413Z 22004KT 08/M01 A2998 RMK A01 T00781006  RH  055%=      5-min Rain = 0
KPD4 190414Z 23004KT 08/M01 A2998 RMK A01 T00781006  RH  056%=      5-min Rain = 0
KPD4 190415Z 22004KT 08/M01 A2998 RMK A01 T00781005  RH  056%=      5-min Rain = 0
KPD4 190416Z 23004KT 08/M01 A2998 RMK A01 T00781005  RH  055%=      5-min Rain = 0
KPD4 190417Z 22004KT 08/M01 A2998 RMK A01 T00781006  RH  055%=      5-min Rain = 0
KPD4 190418Z 23004KT 08/M01 A2999 RMK A01 T00781005  RH  056%=      5-min Rain = 0
KPD4 190419Z 22004KT 08/M01 A2999 RMK A01 T00781005  RH  056%=      5-min Rain = 0
KPD4 190420Z 22004KT 08/M01 A2999 RMK A01 T00781005  RH  056%=      5-min Rain = 0
KPD4 190421Z 22004KT 08/M01 A2999 RMK A01 T00781005  RH  055%=      5-min Rain = 0
KPD4 190422Z 22004KT 08/M01 A2999 RMK A01 T00781005  RH  055%=      5-min Rain = 0
KPD4 190423Z 22003KT 08/M01 A2998 RMK A01 T00791005  RH  055%=      5-min Rain = 0
KPD4 190424Z 22004KT 08/M01 A2998 RMK A01 T00791005  RH  055%=      5-min Rain = 0
KPD4 190425Z 21004KT 08/M01 A2998 RMK A01 T00791005  RH  055%=      5-min Rain = 0
KPD4 190426Z 20003KT 08/M00 A2998 RMK A01 T00791004  RH  055%=      5-min Rain = 0
KPD4 190427Z 20003KT 08/M00 A2998 RMK A01 T00821003  RH  055%=      5-min Rain = 0
KPD4 190428Z 20003KT 08/M01 A2998 RMK A01 T00821005  RH  054%=      5-min Rain = 0
KPD4 190429Z 21003KT 08/M01 A2998 RMK A01 T00821005  RH  054%=      5-min Rain = 0
KPD4 190430Z 22003KT 08/M01 A2998 RMK A01 T00791008  RH  054%=      5-min Rain = 0
KPD4 190431Z 22003KT 08/M01 A2998 RMK A01 T00761007  RH  056%=      5-min Rain = 0
KPD4 190432Z 22004KT 08/M01 A2998 RMK A01 T00761007  RH  056%=      5-min Rain = 0
KPD4 190433Z 22004KT 08/M01 A2998 RMK A01 T00751007  RH  056%=      5-min Rain = 0
KPD4 190434Z 23004KT 07/M01 A2998 RMK A01 T00731007  RH  056%=      5-min Rain = 0
KPD4 190435Z 23004KT 07/M01 A2998 RMK A01 T00721008  RH  057%=      5-min Rain = 0
KPD4 190436Z 23004KT 07/M01 A2998 RMK A01 T00701009  RH  057%=      5-min Rain = 0
KPD4 190437Z 23004KT 07/M01 A2998 RMK A01 T00681010  RH  058%=      5-min Rain = 0
KPD4 190438Z 22003KT 07/M01 A2998 RMK A01 T00661009  RH  059%=      5-min Rain = 0
KPD4 190439Z 22003KT 07/M01 A2998 RMK A01 T00661009  RH  059%=      5-min Rain = 0
KPD4 190440Z 22002KT 07/M01 A2998 RMK A01 T00661008  RH  059%=      5-min Rain = 0
KPD4 190441Z 22002KT 07/M01 A2998 RMK A01 T00651008  RH  059%=      5-min Rain = 0
KPD4 190442Z 21002KT 07/M01 A2998 RMK A01 T00661007  RH  059%=      5-min Rain = 0
KPD4 190443Z 22003KT 07/M01 A2998 RMK A01 T00661008  RH  059%=      5-min Rain = 0
KPD4 190444Z 22003KT 07/M01 A2998 RMK A01 T00671008  RH  059%=      5-min Rain = 0
KPD4 190445Z 22003KT 07/M01 A2998 RMK A01 T00661008  RH  059%=      5-min Rain = 0
KPD4 190446Z 21003KT 07/M01 A2998 RMK A01 T00661008  RH  059%=      5-min Rain = 0
KPD4 190447Z 21002KT 07/M01 A2998 RMK A01 T00651009  RH  059%=      5-min Rain = 0
KPD4 190448Z 21002KT 07/M01 A2998 RMK A01 T00651009  RH  059%=      5-min Rain = 0
KPD4 190449Z 20002KT 07/M01 A2998 RMK A01 T00651008  RH  060%=      5-min Rain = 0
KPD4 190450Z 19001KT 07/M01 A2997 RMK A01 T00681005  RH  060%=      5-min Rain = 0
KPD4 190451Z 18001KT 07/M01 A2997 RMK A01 T00701006  RH  058%=      5-min Rain = 0
KPD4 190452Z 13001KT 07/M01 A2997 RMK A01 T00701008  RH  058%=      5-min Rain = 0
KPD4 190453Z 11002KT 07/M00 A2997 RMK A01 T00731001  RH  059%=      5-min Rain = 0
KPD4 190454Z 09002KT 08/00 A2997 RMK A01 T00810002  RH  057%=      5-min Rain = 0
KPD4 190455Z 08002KT 09/00 A2997 RMK A01 T00880004  RH  056%=      5-min Rain = 0
KPD4 190456Z 08003KT 09/00 A2997 RMK A01 T00930004  RH  054%=      5-min Rain = 0
KPD4 190457Z 08003KT 10/00 A2996 RMK A01 T00980004  RH  052%=      5-min Rain = 0
KPD4 190458Z 08003KT 10/00 A2996 RMK A01 T01010002  RH  050%=      5-min Rain = 0
KPD4 190459Z 08004KT 10/M00 A2996 RMK A01 T01001004  RH  049%=      5-min Rain = 0
KPD4 190500Z 08004KT 10/M00 A2996 RMK A01 T00951004  RH  050%=      5-min Rain = 0
KPD4 190501Z 08003KT 09/M00 A2996 RMK A01 T00921004  RH  051%=      5-min Rain = 0
KPD4 190502Z 08003KT 09/M00 A2996 RMK A01 T00911003  RH  052%=      5-min Rain = 0
KPD4 190503Z 08004KT 09/M00 A2996 RMK A01 T00911002  RH  052%=      5-min Rain = 0
KPD4 190504Z 08003KT 09/M00 A2996 RMK A01 T00921001  RH  052%=      5-min Rain = 0
KPD4 190505Z 08003KT 09/00 A2996 RMK A01 T009400-0  RH  052%=      5-min Rain = 0
KPD4 190506Z 08004KT 10/00 A2996 RMK A01 T009500-0  RH  051%=      5-min Rain = 0
KPD4 190507Z 08004KT 10/00 A2996 RMK A01 T00970000  RH  051%=      5-min Rain = 0
KPD4 190508Z 07004KT 10/M00 A2996 RMK A01 T00981001  RH  050%=      5-min Rain = 0
KPD4 190509Z 07004KT 10/00 A2996 RMK A01 T009800-0  RH  050%=      5-min Rain = 0
KPD4 190510Z 07005KT 10/00 A2996 RMK A01 T009900-0  RH  050%=      5-min Rain = 0
KPD4 190511Z 06005KT 10/M00 A2996 RMK A01 T00991001  RH  050%=      5-min Rain = 0
KPD4 190512Z 06005KT 10/00 A2996 RMK A01 T009900-0  RH  050%=      5-min Rain = 0
KPD4 190513Z 06005KT 10/00 A2996 RMK A01 T009900-0  RH  050%=      5-min Rain = 0
KPD4 190514Z 06005KT 10/00 A2996 RMK A01 T01000001  RH  050%=      5-min Rain = 0
KPD4 190515Z 06005KT 10/00 A2996 RMK A01 T01010001  RH  050%=      5-min Rain = 0
KPD4 190516Z 06005KT 10/00 A2996 RMK A01 T01020001  RH  050%=      5-min Rain = 0
KPD4 190517Z 06005KT 10/00 A2996 RMK A01 T01030002  RH  050%=      5-min Rain = 0
KPD4 190518Z 06005KT 10/00 A2996 RMK A01 T01030002  RH  049%=      5-min Rain = 0
KPD4 190519Z 06005KT 10/00 A2996 RMK A01 T01040002  RH  049%=      5-min Rain = 0
KPD4 190520Z 06005KT 10/00 A2996 RMK A01 T01040002  RH  049%=      5-min Rain = 0
KPD4 190521Z 07005KT 10/00 A2996 RMK A01 T01040002  RH  049%=      5-min Rain = 0
KPD4 190522Z 07005KT 10/00 A2996 RMK A01 T01040002  RH  049%=      5-min Rain = 0
KPD4 190523Z 06005KT 10/00 A2996 RMK A01 T01030002  RH  049%=      5-min Rain = 0
KPD4 190524Z 07005KT 10/00 A2996 RMK A01 T01030002  RH  050%=      5-min Rain = 0
KPD4 190525Z 07004KT 10/00 A2996 RMK A01 T01030002  RH  050%=      5-min Rain = 0
KPD4 190526Z 07004KT 10/00 A2997 RMK A01 T01020002  RH  050%=      5-min Rain = 0
KPD4 190527Z 07004KT 10/00 A2997 RMK A01 T01020002  RH  050%=      5-min Rain = 0
KPD4 190528Z 07003KT 10/00 A2997 RMK A01 T01020002  RH  050%=      5-min Rain = 0
KPD4 190529Z 07003KT 10/00 A2997 RMK A01 T01020002  RH  050%=      5-min Rain = 0
KPD4 190530Z 07004KT 10/00 A2997 RMK A01 T01020002  RH  050%=      5-min Rain = 0
KPD4 190531Z 07004KT 10/00 A2997 RMK A01 T01030001  RH  049%=      5-min Rain = 0
KPD4 190532Z 07004KT 10/00 A2997 RMK A01 T01010000  RH  050%=      5-min Rain = 0
KPD4 190533Z 07004KT 10/00 A2997 RMK A01 T01010001  RH  050%=      5-min Rain = 0
KPD4 190534Z 07004KT 10/00 A2997 RMK A01 T01000001  RH  050%=      5-min Rain = 0
KPD4 190535Z 07004KT 10/00 A2996 RMK A01 T01000001  RH  050%=      5-min Rain = 0
KPD4 190536Z 07004KT 10/00 A2996 RMK A01 T01000001  RH  050%=      5-min Rain = 0
KPD4 190537Z 07004KT 10/00 A2996 RMK A01 T01000001  RH  050%=      5-min Rain = 0
KPD4 190538Z 06004KT 10/00 A2996 RMK A01 T01000000  RH  050%=      5-min Rain = 0
KPD4 190539Z 07004KT 10/00 A2996 RMK A01 T009800-0  RH  050%=      5-min Rain = 0
KPD4 190540Z 07003KT 10/00 A2996 RMK A01 T009800-0  RH  051%=      5-min Rain = 0
KPD4 190541Z 07003KT 10/00 A2996 RMK A01 T009700-0  RH  051%=      5-min Rain = 0
KPD4 190542Z 07003KT 10/00 A2997 RMK A01 T009600-0  RH  051%=      5-min Rain = 0
KPD4 190543Z 07002KT 10/00 A2997 RMK A01 T009600-0  RH  051%=      5-min Rain = 0
KPD4 190544Z 07002KT 10/00 A2997 RMK A01 T009500-0  RH  051%=      5-min Rain = 0
KPD4 190545Z 07002KT 09/M00 A2997 RMK A01 T00941001  RH  051%=      5-min Rain = 0
KPD4 190546Z 07002KT 09/00 A2997 RMK A01 T009400-0  RH  052%=      5-min Rain = 0
KPD4 190547Z 07002KT 09/M00 A2997 RMK A01 T00931001  RH  052%=      5-min Rain = 0
KPD4 190548Z 07002KT 09/00 A2997 RMK A01 T009300-0  RH  052%=      5-min Rain = 0
KPD4 190549Z 07002KT 09/M00 A2997 RMK A01 T00921001  RH  052%=      5-min Rain = 0
KPD4 190550Z 08002KT 09/00 A2997 RMK A01 T009300-0  RH  052%=      5-min Rain = 0
KPD4 190551Z 08002KT 09/00 A2997 RMK A01 T009300-0  RH  052%=      5-min Rain = 0
KPD4 190552Z 08002KT 09/00 A2997 RMK A01 T009300-0  RH  052%=      5-min Rain = 0
KPD4 190553Z 08002KT 09/00 A2997 RMK A01 T00930000  RH  052%=      5-min Rain = 0
KPD4 190554Z 08002KT 09/00 A2997 RMK A01 T00930000  RH  052%=      5-min Rain = 0
KPD4 190555Z 08002KT 09/00 A2997 RMK A01 T00940000  RH  052%=      5-min Rain = 0
KPD4 190556Z 09002KT 09/00 A2997 RMK A01 T00940000  RH  052%=      5-min Rain = 0
KPD4 190557Z 08002KT 10/00 A2997 RMK A01 T00950000  RH  052%=      5-min Rain = 0
KPD4 190558Z 08002KT 10/00 A2997 RMK A01 T00950000  RH  052%=      5-min Rain = 0
KPD4 190559Z 08002KT 10/00 A2997 RMK A01 T00960000  RH  051%=      5-min Rain = 0

Page generated in 0.0943 seconds.